<?xml version='1.0' encoding='UTF-8'?>
<gpx version="1.1" creator="https://www.komoot.de" xmlns="http://www.topografix.com/GPX/1/1" xmlns:xsi="http://www.w3.org/2001/XMLSchema-instance" xsi:schemaLocation="http://www.topografix.com/GPX/1/1 http://www.topografix.com/GPX/1/1/gpx.xsd">
  <metadata>
    <name>45_630 Witnau-Kaisten</name>
    <author>
      <link href="https://www.komoot.de">
        <text>komoot</text>
        <type>text/html</type>
      </link>
    </author>
  </metadata>
  <trk>
    <name>45_630 Witnau-Kaisten</name>
    <trkseg>
      <trkpt lat="47.541539" lon="7.870692">
        <ele>341.972134</ele>
        <time>2021-11-07T14:21:20.529Z</time>
      </trkpt>
      <trkpt lat="47.541410" lon="7.870791">
        <ele>341.972134</ele>
        <time>2021-11-07T14:21:23.905Z</time>
      </trkpt>
      <trkpt lat="47.541258" lon="7.870917">
        <ele>341.972134</ele>
        <time>2021-11-07T14:21:27.729Z</time>
      </trkpt>
      <trkpt lat="47.540933" lon="7.871187">
        <ele>341.972134</ele>
        <time>2021-11-07T14:21:36.462Z</time>
      </trkpt>
      <trkpt lat="47.540894" lon="7.871220">
        <ele>341.972134</ele>
        <time>2021-11-07T14:21:37.611Z</time>
      </trkpt>
      <trkpt lat="47.540693" lon="7.871390">
        <ele>342.108995</ele>
        <time>2021-11-07T14:21:43.143Z</time>
      </trkpt>
      <trkpt lat="47.540463" lon="7.871584">
        <ele>342.632974</ele>
        <time>2021-11-07T14:21:49.468Z</time>
      </trkpt>
      <trkpt lat="47.540265" lon="7.871808">
        <ele>343.126201</ele>
        <time>2021-11-07T14:21:55.031Z</time>
      </trkpt>
      <trkpt lat="47.540216" lon="7.871851">
        <ele>343.238952</ele>
        <time>2021-11-07T14:21:56.541Z</time>
      </trkpt>
      <trkpt lat="47.540034" lon="7.871970">
        <ele>343.632801</ele>
        <time>2021-11-07T14:22:01.187Z</time>
      </trkpt>
      <trkpt lat="47.539930" lon="7.872041">
        <ele>343.859506</ele>
        <time>2021-11-07T14:22:03.769Z</time>
      </trkpt>
      <trkpt lat="47.539841" lon="7.872151">
        <ele>344.088978</ele>
        <time>2021-11-07T14:22:06.794Z</time>
      </trkpt>
      <trkpt lat="47.539678" lon="7.872430">
        <ele>344.582100</ele>
        <time>2021-11-07T14:22:12.308Z</time>
      </trkpt>
      <trkpt lat="47.539222" lon="7.873416">
        <ele>345.878138</ele>
        <time>2021-11-07T14:22:29.849Z</time>
      </trkpt>
      <trkpt lat="47.538278" lon="7.874319">
        <ele>347.065976</ele>
        <time>2021-11-07T14:22:49.503Z</time>
      </trkpt>
      <trkpt lat="47.537716" lon="7.874966">
        <ele>348.032939</ele>
        <time>2021-11-07T14:23:03.478Z</time>
      </trkpt>
      <trkpt lat="47.537261" lon="7.875237">
        <ele>348.840881</ele>
        <time>2021-11-07T14:23:12.995Z</time>
      </trkpt>
      <trkpt lat="47.537182" lon="7.875293">
        <ele>348.985169</ele>
        <time>2021-11-07T14:23:14.983Z</time>
      </trkpt>
      <trkpt lat="47.536921" lon="7.875537">
        <ele>349.493647</ele>
        <time>2021-11-07T14:23:20.950Z</time>
      </trkpt>
      <trkpt lat="47.536757" lon="7.875759">
        <ele>349.859669</ele>
        <time>2021-11-07T14:23:25.552Z</time>
      </trkpt>
      <trkpt lat="47.536632" lon="7.875912">
        <ele>350.126821</ele>
        <time>2021-11-07T14:23:28.720Z</time>
      </trkpt>
      <trkpt lat="47.536444" lon="7.876177">
        <ele>350.823690</ele>
        <time>2021-11-07T14:23:35.682Z</time>
      </trkpt>
      <trkpt lat="47.535851" lon="7.877319">
        <ele>355.176705</ele>
        <time>2021-11-07T14:24:06.996Z</time>
      </trkpt>
      <trkpt lat="47.535770" lon="7.877432">
        <ele>355.674678</ele>
        <time>2021-11-07T14:24:11.176Z</time>
      </trkpt>
      <trkpt lat="47.535635" lon="7.877484">
        <ele>356.298945</ele>
        <time>2021-11-07T14:24:17.043Z</time>
      </trkpt>
      <trkpt lat="47.535551" lon="7.877487">
        <ele>356.674983</ele>
        <time>2021-11-07T14:24:18.951Z</time>
      </trkpt>
      <trkpt lat="47.535322" lon="7.877590">
        <ele>357.746047</ele>
        <time>2021-11-07T14:24:29.003Z</time>
      </trkpt>
      <trkpt lat="47.535088" lon="7.877742">
        <ele>358.965574</ele>
        <time>2021-11-07T14:24:36.835Z</time>
      </trkpt>
      <trkpt lat="47.534855" lon="7.878090">
        <ele>360.700816</ele>
        <time>2021-11-07T14:24:48.818Z</time>
      </trkpt>
      <trkpt lat="47.534778" lon="7.878270">
        <ele>361.455268</ele>
        <time>2021-11-07T14:24:56.125Z</time>
      </trkpt>
      <trkpt lat="47.534825" lon="7.878414">
        <ele>362.021557</ele>
        <time>2021-11-07T14:24:58.752Z</time>
      </trkpt>
      <trkpt lat="47.534946" lon="7.878790">
        <ele>363.496288</ele>
        <time>2021-11-07T14:25:10.799Z</time>
      </trkpt>
      <trkpt lat="47.534908" lon="7.878975">
        <ele>364.180928</ele>
        <time>2021-11-07T14:25:14.857Z</time>
      </trkpt>
      <trkpt lat="47.534616" lon="7.879490">
        <ele>366.562005</ele>
        <time>2021-11-07T14:25:31.804Z</time>
      </trkpt>
      <trkpt lat="47.533892" lon="7.880353">
        <ele>369.696591</ele>
        <time>2021-11-07T14:25:59.544Z</time>
      </trkpt>
      <trkpt lat="47.533606" lon="7.880961">
        <ele>371.037294</ele>
        <time>2021-11-07T14:26:11.852Z</time>
      </trkpt>
      <trkpt lat="47.533374" lon="7.881639">
        <ele>372.412540</ele>
        <time>2021-11-07T14:26:22.898Z</time>
      </trkpt>
      <trkpt lat="47.533014" lon="7.882949">
        <ele>372.880898</ele>
        <time>2021-11-07T14:26:40.813Z</time>
      </trkpt>
      <trkpt lat="47.532859" lon="7.883508">
        <ele>372.968269</ele>
        <time>2021-11-07T14:26:46.691Z</time>
      </trkpt>
      <trkpt lat="47.532713" lon="7.884122">
        <ele>373.062387</ele>
        <time>2021-11-07T14:26:52.388Z</time>
      </trkpt>
      <trkpt lat="47.532699" lon="7.884224">
        <ele>373.077436</ele>
        <time>2021-11-07T14:26:53.342Z</time>
      </trkpt>
      <trkpt lat="47.532670" lon="7.884773">
        <ele>372.590949</ele>
        <time>2021-11-07T14:26:57.836Z</time>
      </trkpt>
      <trkpt lat="47.532658" lon="7.884989">
        <ele>372.377820</ele>
        <time>2021-11-07T14:26:59.448Z</time>
      </trkpt>
      <trkpt lat="47.532650" lon="7.885569">
        <ele>371.807339</ele>
        <time>2021-11-07T14:27:03.950Z</time>
      </trkpt>
      <trkpt lat="47.532505" lon="7.887120">
        <ele>370.236584</ele>
        <time>2021-11-07T14:27:15.901Z</time>
      </trkpt>
      <trkpt lat="47.532288" lon="7.887728">
        <ele>369.454078</ele>
        <time>2021-11-07T14:27:21.078Z</time>
      </trkpt>
      <trkpt lat="47.532011" lon="7.888896">
        <ele>368.045492</ele>
        <time>2021-11-07T14:27:30.308Z</time>
      </trkpt>
      <trkpt lat="47.531843" lon="7.889349">
        <ele>367.457416</ele>
        <time>2021-11-07T14:27:34.344Z</time>
      </trkpt>
      <trkpt lat="47.531560" lon="7.889776">
        <ele>367.331477</ele>
        <time>2021-11-07T14:27:39.285Z</time>
      </trkpt>
      <trkpt lat="47.531265" lon="7.889937">
        <ele>367.249098</ele>
        <time>2021-11-07T14:27:43.252Z</time>
      </trkpt>
      <trkpt lat="47.531076" lon="7.890029">
        <ele>367.196968</ele>
        <time>2021-11-07T14:27:46.094Z</time>
      </trkpt>
      <trkpt lat="47.530606" lon="7.890373">
        <ele>367.059597</ele>
        <time>2021-11-07T14:27:53.943Z</time>
      </trkpt>
      <trkpt lat="47.530322" lon="7.890690">
        <ele>366.966414</ele>
        <time>2021-11-07T14:27:59.936Z</time>
      </trkpt>
      <trkpt lat="47.529972" lon="7.891210">
        <ele>367.452321</ele>
        <time>2021-11-07T14:28:09.098Z</time>
      </trkpt>
      <trkpt lat="47.529714" lon="7.891609">
        <ele>367.832928</ele>
        <time>2021-11-07T14:28:16.432Z</time>
      </trkpt>
      <trkpt lat="47.529695" lon="7.891638">
        <ele>367.860767</ele>
        <time>2021-11-07T14:28:17.418Z</time>
      </trkpt>
      <trkpt lat="47.529235" lon="7.892158">
        <ele>368.451223</ele>
        <time>2021-11-07T14:28:28.352Z</time>
      </trkpt>
      <trkpt lat="47.528331" lon="7.892682">
        <ele>369.609489</ele>
        <time>2021-11-07T14:28:47.054Z</time>
      </trkpt>
      <trkpt lat="47.528003" lon="7.892732">
        <ele>370.033540</ele>
        <time>2021-11-07T14:28:52.760Z</time>
      </trkpt>
      <trkpt lat="47.527498" lon="7.892650">
        <ele>370.686884</ele>
        <time>2021-11-07T14:29:02.233Z</time>
      </trkpt>
      <trkpt lat="47.527011" lon="7.893061">
        <ele>371.739128</ele>
        <time>2021-11-07T14:29:15.426Z</time>
      </trkpt>
      <trkpt lat="47.526709" lon="7.893617">
        <ele>373.050063</ele>
        <time>2021-11-07T14:29:27.957Z</time>
      </trkpt>
      <trkpt lat="47.526504" lon="7.894030">
        <ele>373.991768</ele>
        <time>2021-11-07T14:29:38.139Z</time>
      </trkpt>
      <trkpt lat="47.526451" lon="7.893983">
        <ele>374.159845</ele>
        <time>2021-11-07T14:29:39.528Z</time>
      </trkpt>
      <trkpt lat="47.526401" lon="7.893964">
        <ele>374.300290</ele>
        <time>2021-11-07T14:29:40.345Z</time>
      </trkpt>
      <trkpt lat="47.526335" lon="7.893960">
        <ele>374.480011</ele>
        <time>2021-11-07T14:29:42.419Z</time>
      </trkpt>
      <trkpt lat="47.526257" lon="7.894278">
        <ele>375.101591</ele>
        <time>2021-11-07T14:29:48.631Z</time>
      </trkpt>
      <trkpt lat="47.525725" lon="7.895110">
        <ele>376.838431</ele>
        <time>2021-11-07T14:30:07.713Z</time>
      </trkpt>
      <trkpt lat="47.525603" lon="7.895265">
        <ele>377.141812</ele>
        <time>2021-11-07T14:30:13.329Z</time>
      </trkpt>
      <trkpt lat="47.525631" lon="7.895442">
        <ele>377.373498</ele>
        <time>2021-11-07T14:30:16.179Z</time>
      </trkpt>
      <trkpt lat="47.525631" lon="7.895583">
        <ele>377.553196</ele>
        <time>2021-11-07T14:30:17.370Z</time>
      </trkpt>
      <trkpt lat="47.525622" lon="7.895944">
        <ele>378.013587</ele>
        <time>2021-11-07T14:30:24.806Z</time>
      </trkpt>
      <trkpt lat="47.525590" lon="7.896117">
        <ele>378.242189</ele>
        <time>2021-11-07T14:30:26.358Z</time>
      </trkpt>
      <trkpt lat="47.525518" lon="7.896336">
        <ele>378.552618</ele>
        <time>2021-11-07T14:30:31.166Z</time>
      </trkpt>
      <trkpt lat="47.524834" lon="7.897636">
        <ele>379.410564</ele>
        <time>2021-11-07T14:30:48.089Z</time>
      </trkpt>
      <trkpt lat="47.524617" lon="7.898216">
        <ele>379.418320</ele>
        <time>2021-11-07T14:30:54.262Z</time>
      </trkpt>
      <trkpt lat="47.524360" lon="7.898951">
        <ele>379.428002</ele>
        <time>2021-11-07T14:31:01.803Z</time>
      </trkpt>
      <trkpt lat="47.524309" lon="7.899115">
        <ele>379.430114</ele>
        <time>2021-11-07T14:31:03.717Z</time>
      </trkpt>
      <trkpt lat="47.523896" lon="7.900001">
        <ele>380.310248</ele>
        <time>2021-11-07T14:31:15.640Z</time>
      </trkpt>
      <trkpt lat="47.523861" lon="7.900049">
        <ele>380.368447</ele>
        <time>2021-11-07T14:31:16.619Z</time>
      </trkpt>
      <trkpt lat="47.523890" lon="7.900131">
        <ele>380.444706</ele>
        <time>2021-11-07T14:31:17.574Z</time>
      </trkpt>
      <trkpt lat="47.523945" lon="7.900256">
        <ele>380.567618</ele>
        <time>2021-11-07T14:31:19.165Z</time>
      </trkpt>
      <trkpt lat="47.523989" lon="7.900340">
        <ele>380.655200</ele>
        <time>2021-11-07T14:31:20.215Z</time>
      </trkpt>
      <trkpt lat="47.523957" lon="7.900371">
        <ele>380.701852</ele>
        <time>2021-11-07T14:31:20.920Z</time>
      </trkpt>
      <trkpt lat="47.523878" lon="7.900445">
        <ele>380.815894</ele>
        <time>2021-11-07T14:31:23.037Z</time>
      </trkpt>
      <trkpt lat="47.523739" lon="7.900557">
        <ele>381.008952</ele>
        <time>2021-11-07T14:31:25.968Z</time>
      </trkpt>
      <trkpt lat="47.523648" lon="7.900606">
        <ele>381.127083</ele>
        <time>2021-11-07T14:31:28.147Z</time>
      </trkpt>
      <trkpt lat="47.523620" lon="7.900698">
        <ele>381.210220</ele>
        <time>2021-11-07T14:31:30.110Z</time>
      </trkpt>
      <trkpt lat="47.523567" lon="7.900820">
        <ele>381.329732</ele>
        <time>2021-11-07T14:31:32.208Z</time>
      </trkpt>
      <trkpt lat="47.523433" lon="7.901043">
        <ele>381.575655</ele>
        <time>2021-11-07T14:31:37.452Z</time>
      </trkpt>
      <trkpt lat="47.523340" lon="7.901197">
        <ele>382.020458</ele>
        <time>2021-11-07T14:31:41.494Z</time>
      </trkpt>
      <trkpt lat="47.523036" lon="7.901580">
        <ele>383.609700</ele>
        <time>2021-11-07T14:31:53.190Z</time>
      </trkpt>
      <trkpt lat="47.522688" lon="7.901843">
        <ele>385.165357</ele>
        <time>2021-11-07T14:32:05.508Z</time>
      </trkpt>
      <trkpt lat="47.522554" lon="7.901999">
        <ele>385.844049</ele>
        <time>2021-11-07T14:32:11.829Z</time>
      </trkpt>
      <trkpt lat="47.522260" lon="7.902356">
        <ele>387.357922</ele>
        <time>2021-11-07T14:32:24.202Z</time>
      </trkpt>
      <trkpt lat="47.522132" lon="7.902476">
        <ele>387.961134</ele>
        <time>2021-11-07T14:32:28.760Z</time>
      </trkpt>
      <trkpt lat="47.522065" lon="7.902526">
        <ele>388.259871</ele>
        <time>2021-11-07T14:32:30.954Z</time>
      </trkpt>
      <trkpt lat="47.522038" lon="7.902562">
        <ele>388.404535</ele>
        <time>2021-11-07T14:32:32.458Z</time>
      </trkpt>
      <trkpt lat="47.522013" lon="7.902637">
        <ele>388.629430</ele>
        <time>2021-11-07T14:32:34.592Z</time>
      </trkpt>
      <trkpt lat="47.521792" lon="7.903347">
        <ele>390.395440</ele>
        <time>2021-11-07T14:32:50.660Z</time>
      </trkpt>
      <trkpt lat="47.521297" lon="7.904312">
        <ele>393.090871</ele>
        <time>2021-11-07T14:33:14.662Z</time>
      </trkpt>
      <trkpt lat="47.520989" lon="7.905130">
        <ele>394.833885</ele>
        <time>2021-11-07T14:33:30.077Z</time>
      </trkpt>
      <trkpt lat="47.520678" lon="7.906050">
        <ele>395.443193</ele>
        <time>2021-11-07T14:33:43.547Z</time>
      </trkpt>
      <trkpt lat="47.520566" lon="7.906668">
        <ele>395.822147</ele>
        <time>2021-11-07T14:33:50.567Z</time>
      </trkpt>
      <trkpt lat="47.520528" lon="7.906930">
        <ele>395.980853</ele>
        <time>2021-11-07T14:33:53.827Z</time>
      </trkpt>
      <trkpt lat="47.520515" lon="7.907103">
        <ele>396.083943</ele>
        <time>2021-11-07T14:33:55.624Z</time>
      </trkpt>
      <trkpt lat="47.520506" lon="7.907236">
        <ele>396.163105</ele>
        <time>2021-11-07T14:33:56.701Z</time>
      </trkpt>
      <trkpt lat="47.520551" lon="7.907422">
        <ele>396.280117</ele>
        <time>2021-11-07T14:33:59.111Z</time>
      </trkpt>
      <trkpt lat="47.520733" lon="7.907655">
        <ele>396.307766</ele>
        <time>2021-11-07T14:34:02.297Z</time>
      </trkpt>
      <trkpt lat="47.520738" lon="7.907839">
        <ele>396.318475</ele>
        <time>2021-11-07T14:34:04.440Z</time>
      </trkpt>
      <trkpt lat="47.520493" lon="7.908683">
        <ele>396.371896</ele>
        <time>2021-11-07T14:34:12.620Z</time>
      </trkpt>
      <trkpt lat="47.519997" lon="7.910833">
        <ele>397.113388</ele>
        <time>2021-11-07T14:34:38.566Z</time>
      </trkpt>
      <trkpt lat="47.519891" lon="7.911129">
        <ele>397.326445</ele>
        <time>2021-11-07T14:34:43.156Z</time>
      </trkpt>
      <trkpt lat="47.519720" lon="7.911522">
        <ele>397.623740</ele>
        <time>2021-11-07T14:34:49.240Z</time>
      </trkpt>
      <trkpt lat="47.519421" lon="7.912098">
        <ele>398.085733</ele>
        <time>2021-11-07T14:34:58.807Z</time>
      </trkpt>
      <trkpt lat="47.517688" lon="7.914418">
        <ele>400.550612</ele>
        <time>2021-11-07T14:35:43.385Z</time>
      </trkpt>
      <trkpt lat="47.517281" lon="7.915238">
        <ele>401.219404</ele>
        <time>2021-11-07T14:35:56.399Z</time>
      </trkpt>
      <trkpt lat="47.517140" lon="7.915259">
        <ele>401.357306</ele>
        <time>2021-11-07T14:35:58.900Z</time>
      </trkpt>
      <trkpt lat="47.516806" lon="7.914896">
        <ele>401.760483</ele>
        <time>2021-11-07T14:36:06.474Z</time>
      </trkpt>
      <trkpt lat="47.516748" lon="7.914873">
        <ele>401.818913</ele>
        <time>2021-11-07T14:36:07.646Z</time>
      </trkpt>
      <trkpt lat="47.516662" lon="7.914835">
        <ele>401.900365</ele>
        <time>2021-11-07T14:36:09.437Z</time>
      </trkpt>
      <trkpt lat="47.516626" lon="7.914830">
        <ele>401.932835</ele>
        <time>2021-11-07T14:36:10.132Z</time>
      </trkpt>
      <trkpt lat="47.516590" lon="7.914840">
        <ele>401.965728</ele>
        <time>2021-11-07T14:36:10.728Z</time>
      </trkpt>
      <trkpt lat="47.516569" lon="7.914864">
        <ele>401.989550</ele>
        <time>2021-11-07T14:36:11.262Z</time>
      </trkpt>
      <trkpt lat="47.516544" lon="7.914936">
        <ele>402.038652</ele>
        <time>2021-11-07T14:36:12.109Z</time>
      </trkpt>
      <trkpt lat="47.516391" lon="7.915243">
        <ele>402.270053</ele>
        <time>2021-11-07T14:36:16.902Z</time>
      </trkpt>
      <trkpt lat="47.515014" lon="7.917030">
        <ele>404.099085</ele>
        <time>2021-11-07T14:36:50.678Z</time>
      </trkpt>
      <trkpt lat="47.514635" lon="7.917349">
        <ele>404.644719</ele>
        <time>2021-11-07T14:36:58.797Z</time>
      </trkpt>
      <trkpt lat="47.514561" lon="7.917409">
        <ele>404.750314</ele>
        <time>2021-11-07T14:37:00.689Z</time>
      </trkpt>
      <trkpt lat="47.514255" lon="7.917714">
        <ele>405.211991</ele>
        <time>2021-11-07T14:37:08.158Z</time>
      </trkpt>
      <trkpt lat="47.513378" lon="7.918393">
        <ele>407.070479</ele>
        <time>2021-11-07T14:37:29.884Z</time>
      </trkpt>
      <trkpt lat="47.513160" lon="7.918764">
        <ele>407.827776</ele>
        <time>2021-11-07T14:37:37.386Z</time>
      </trkpt>
      <trkpt lat="47.513058" lon="7.918896">
        <ele>408.136663</ele>
        <time>2021-11-07T14:37:40.541Z</time>
      </trkpt>
      <trkpt lat="47.512938" lon="7.919052">
        <ele>408.500776</ele>
        <time>2021-11-07T14:37:44.321Z</time>
      </trkpt>
      <trkpt lat="47.512664" lon="7.919306">
        <ele>409.237873</ele>
        <time>2021-11-07T14:37:52.544Z</time>
      </trkpt>
      <trkpt lat="47.512255" lon="7.919538">
        <ele>410.455350</ele>
        <time>2021-11-07T14:38:04.469Z</time>
      </trkpt>
      <trkpt lat="47.512085" lon="7.919732">
        <ele>411.188618</ele>
        <time>2021-11-07T14:38:10.678Z</time>
      </trkpt>
      <trkpt lat="47.511964" lon="7.919989">
        <ele>411.911493</ele>
        <time>2021-11-07T14:38:17.158Z</time>
      </trkpt>
      <trkpt lat="47.511883" lon="7.920133">
        <ele>412.343907</ele>
        <time>2021-11-07T14:38:21.172Z</time>
      </trkpt>
      <trkpt lat="47.511632" lon="7.920105">
        <ele>413.203824</ele>
        <time>2021-11-07T14:38:30.152Z</time>
      </trkpt>
      <trkpt lat="47.511375" lon="7.920079">
        <ele>414.083856</ele>
        <time>2021-11-07T14:38:38.648Z</time>
      </trkpt>
      <trkpt lat="47.510704" lon="7.919944">
        <ele>416.428706</ele>
        <time>2021-11-07T14:39:01.156Z</time>
      </trkpt>
      <trkpt lat="47.510627" lon="7.919935">
        <ele>416.710813</ele>
        <time>2021-11-07T14:39:03.493Z</time>
      </trkpt>
      <trkpt lat="47.510551" lon="7.919925">
        <ele>416.989487</ele>
        <time>2021-11-07T14:39:06.603Z</time>
      </trkpt>
      <trkpt lat="47.509902" lon="7.920009">
        <ele>419.368913</ele>
        <time>2021-11-07T14:39:27.200Z</time>
      </trkpt>
      <trkpt lat="47.509811" lon="7.920040">
        <ele>419.709964</ele>
        <time>2021-11-07T14:39:31.184Z</time>
      </trkpt>
      <trkpt lat="47.509809" lon="7.920155">
        <ele>419.993767</ele>
        <time>2021-11-07T14:39:32.778Z</time>
      </trkpt>
      <trkpt lat="47.509746" lon="7.920320">
        <ele>420.461362</ele>
        <time>2021-11-07T14:39:36.018Z</time>
      </trkpt>
      <trkpt lat="47.509586" lon="7.920497">
        <ele>421.190867</ele>
        <time>2021-11-07T14:39:44.396Z</time>
      </trkpt>
      <trkpt lat="47.509370" lon="7.920707">
        <ele>422.134683</ele>
        <time>2021-11-07T14:39:52.703Z</time>
      </trkpt>
      <trkpt lat="47.509138" lon="7.920939">
        <ele>423.310788</ele>
        <time>2021-11-07T14:40:01.665Z</time>
      </trkpt>
      <trkpt lat="47.508613" lon="7.921495">
        <ele>426.228955</ele>
        <time>2021-11-07T14:40:21.246Z</time>
      </trkpt>
      <trkpt lat="47.508585" lon="7.921587">
        <ele>426.537094</ele>
        <time>2021-11-07T14:40:22.177Z</time>
      </trkpt>
      <trkpt lat="47.508464" lon="7.921688">
        <ele>427.165065</ele>
        <time>2021-11-07T14:40:28.484Z</time>
      </trkpt>
      <trkpt lat="47.508248" lon="7.921916">
        <ele>428.364347</ele>
        <time>2021-11-07T14:40:36.070Z</time>
      </trkpt>
      <trkpt lat="47.508175" lon="7.922172">
        <ele>429.212901</ele>
        <time>2021-11-07T14:40:42.630Z</time>
      </trkpt>
      <trkpt lat="47.508171" lon="7.922196">
        <ele>429.288387</ele>
        <time>2021-11-07T14:40:44.468Z</time>
      </trkpt>
      <trkpt lat="47.508141" lon="7.922350">
        <ele>429.777825</ele>
        <time>2021-11-07T14:40:47.041Z</time>
      </trkpt>
      <trkpt lat="47.508128" lon="7.922441">
        <ele>430.061859</ele>
        <time>2021-11-07T14:40:49.837Z</time>
      </trkpt>
      <trkpt lat="47.508064" lon="7.922687">
        <ele>430.751780</ele>
        <time>2021-11-07T14:40:56.346Z</time>
      </trkpt>
      <trkpt lat="47.507981" lon="7.923001">
        <ele>431.253016</ele>
        <time>2021-11-07T14:41:04.660Z</time>
      </trkpt>
      <trkpt lat="47.507956" lon="7.923075">
        <ele>431.376010</ele>
        <time>2021-11-07T14:41:06.651Z</time>
      </trkpt>
      <trkpt lat="47.507876" lon="7.923234">
        <ele>431.670731</ele>
        <time>2021-11-07T14:41:10.976Z</time>
      </trkpt>
      <trkpt lat="47.507823" lon="7.923307">
        <ele>431.830042</ele>
        <time>2021-11-07T14:41:12.709Z</time>
      </trkpt>
      <trkpt lat="47.507715" lon="7.923412">
        <ele>432.114385</ele>
        <time>2021-11-07T14:41:17.426Z</time>
      </trkpt>
      <trkpt lat="47.507337" lon="7.923777">
        <ele>433.107555</ele>
        <time>2021-11-07T14:41:25.799Z</time>
      </trkpt>
      <trkpt lat="47.507226" lon="7.923898">
        <ele>433.410911</ele>
        <time>2021-11-07T14:41:29.392Z</time>
      </trkpt>
      <trkpt lat="47.507191" lon="7.924066">
        <ele>433.672259</ele>
        <time>2021-11-07T14:41:30.940Z</time>
      </trkpt>
      <trkpt lat="47.506562" lon="7.924949">
        <ele>433.958108</ele>
        <time>2021-11-07T14:41:43.839Z</time>
      </trkpt>
      <trkpt lat="47.506019" lon="7.926055">
        <ele>432.623752</ele>
        <time>2021-11-07T14:41:53.620Z</time>
      </trkpt>
      <trkpt lat="47.505768" lon="7.926636">
        <ele>432.014104</ele>
        <time>2021-11-07T14:41:58.700Z</time>
      </trkpt>
      <trkpt lat="47.505699" lon="7.926906">
        <ele>432.078698</ele>
        <time>2021-11-07T14:42:01.765Z</time>
      </trkpt>
      <trkpt lat="47.505690" lon="7.927200">
        <ele>432.144550</ele>
        <time>2021-11-07T14:42:03.919Z</time>
      </trkpt>
      <trkpt lat="47.505748" lon="7.927310">
        <ele>432.175774</ele>
        <time>2021-11-07T14:42:06.090Z</time>
      </trkpt>
      <trkpt lat="47.505858" lon="7.927551">
        <ele>432.240856</ele>
        <time>2021-11-07T14:42:08.854Z</time>
      </trkpt>
      <trkpt lat="47.505881" lon="7.927601">
        <ele>432.254392</ele>
        <time>2021-11-07T14:42:09.851Z</time>
      </trkpt>
      <trkpt lat="47.505868" lon="7.927611">
        <ele>432.259244</ele>
        <time>2021-11-07T14:42:10.078Z</time>
      </trkpt>
      <trkpt lat="47.505814" lon="7.927657">
        <ele>432.279881</ele>
        <time>2021-11-07T14:42:11.940Z</time>
      </trkpt>
      <trkpt lat="47.505253" lon="7.928170">
        <ele>432.498303</ele>
        <time>2021-11-07T14:42:23.760Z</time>
      </trkpt>
      <trkpt lat="47.504799" lon="7.928777">
        <ele>432.988410</ele>
        <time>2021-11-07T14:42:34.419Z</time>
      </trkpt>
      <trkpt lat="47.504724" lon="7.928871">
        <ele>433.111914</ele>
        <time>2021-11-07T14:42:38.055Z</time>
      </trkpt>
      <trkpt lat="47.504650" lon="7.928941">
        <ele>433.222282</ele>
        <time>2021-11-07T14:42:40.589Z</time>
      </trkpt>
      <trkpt lat="47.504005" lon="7.929312">
        <ele>434.091943</ele>
        <time>2021-11-07T14:42:55.030Z</time>
      </trkpt>
      <trkpt lat="47.503815" lon="7.929426">
        <ele>434.349598</ele>
        <time>2021-11-07T14:42:57.989Z</time>
      </trkpt>
      <trkpt lat="47.503598" lon="7.929585">
        <ele>434.653898</ele>
        <time>2021-11-07T14:43:03.265Z</time>
      </trkpt>
      <trkpt lat="47.503528" lon="7.929650">
        <ele>434.757748</ele>
        <time>2021-11-07T14:43:04.337Z</time>
      </trkpt>
      <trkpt lat="47.503485" lon="7.929688">
        <ele>434.820687</ele>
        <time>2021-11-07T14:43:05.849Z</time>
      </trkpt>
      <trkpt lat="47.503014" lon="7.930220">
        <ele>435.303205</ele>
        <time>2021-11-07T14:43:15.761Z</time>
      </trkpt>
      <trkpt lat="47.502761" lon="7.930610">
        <ele>435.592041</ele>
        <time>2021-11-07T14:43:22.114Z</time>
      </trkpt>
      <trkpt lat="47.502613" lon="7.930856">
        <ele>435.768009</ele>
        <time>2021-11-07T14:43:25.912Z</time>
      </trkpt>
      <trkpt lat="47.502400" lon="7.931256">
        <ele>436.040087</ele>
        <time>2021-11-07T14:43:32.716Z</time>
      </trkpt>
      <trkpt lat="47.502023" lon="7.932158">
        <ele>436.553875</ele>
        <time>2021-11-07T14:43:45.702Z</time>
      </trkpt>
      <trkpt lat="47.501901" lon="7.932351">
        <ele>436.672186</ele>
        <time>2021-11-07T14:43:49.461Z</time>
      </trkpt>
      <trkpt lat="47.501794" lon="7.932466">
        <ele>436.759799</ele>
        <time>2021-11-07T14:43:51.340Z</time>
      </trkpt>
      <trkpt lat="47.501463" lon="7.932668">
        <ele>436.997021</ele>
        <time>2021-11-07T14:43:57.480Z</time>
      </trkpt>
      <trkpt lat="47.501075" lon="7.932885">
        <ele>437.271841</ele>
        <time>2021-11-07T14:44:05.019Z</time>
      </trkpt>
      <trkpt lat="47.500990" lon="7.932950">
        <ele>437.335232</ele>
        <time>2021-11-07T14:44:06.837Z</time>
      </trkpt>
      <trkpt lat="47.500843" lon="7.933102">
        <ele>437.454042</ele>
        <time>2021-11-07T14:44:09.716Z</time>
      </trkpt>
      <trkpt lat="47.500435" lon="7.933872">
        <ele>437.824313</ele>
        <time>2021-11-07T14:44:19.547Z</time>
      </trkpt>
      <trkpt lat="47.500386" lon="7.933937">
        <ele>437.860866</ele>
        <time>2021-11-07T14:44:20.406Z</time>
      </trkpt>
      <trkpt lat="47.500352" lon="7.933976">
        <ele>437.884763</ele>
        <time>2021-11-07T14:44:21.168Z</time>
      </trkpt>
      <trkpt lat="47.500275" lon="7.934029">
        <ele>437.931939</ele>
        <time>2021-11-07T14:44:22.276Z</time>
      </trkpt>
      <trkpt lat="47.500208" lon="7.934071">
        <ele>437.972361</ele>
        <time>2021-11-07T14:44:23.509Z</time>
      </trkpt>
      <trkpt lat="47.500193" lon="7.934023">
        <ele>437.992210</ele>
        <time>2021-11-07T14:44:23.988Z</time>
      </trkpt>
      <trkpt lat="47.500169" lon="7.933984">
        <ele>438.012010</ele>
        <time>2021-11-07T14:44:24.421Z</time>
      </trkpt>
      <trkpt lat="47.500138" lon="7.933956">
        <ele>438.032185</ele>
        <time>2021-11-07T14:44:24.965Z</time>
      </trkpt>
      <trkpt lat="47.500067" lon="7.933946">
        <ele>438.071807</ele>
        <time>2021-11-07T14:44:25.913Z</time>
      </trkpt>
      <trkpt lat="47.500034" lon="7.933965">
        <ele>438.091479</ele>
        <time>2021-11-07T14:44:26.732Z</time>
      </trkpt>
      <trkpt lat="47.499993" lon="7.933864">
        <ele>438.135703</ele>
        <time>2021-11-07T14:44:28.274Z</time>
      </trkpt>
      <trkpt lat="47.499822" lon="7.933272">
        <ele>438.377351</ele>
        <time>2021-11-07T14:44:36.253Z</time>
      </trkpt>
      <trkpt lat="47.499538" lon="7.932868">
        <ele>438.841202</ele>
        <time>2021-11-07T14:44:44.235Z</time>
      </trkpt>
      <trkpt lat="47.499421" lon="7.932805">
        <ele>439.046612</ele>
        <time>2021-11-07T14:44:47.290Z</time>
      </trkpt>
      <trkpt lat="47.499354" lon="7.932769">
        <ele>439.164211</ele>
        <time>2021-11-07T14:44:49.017Z</time>
      </trkpt>
      <trkpt lat="47.499088" lon="7.932741">
        <ele>439.604183</ele>
        <time>2021-11-07T14:44:54.894Z</time>
      </trkpt>
      <trkpt lat="47.498997" lon="7.932758">
        <ele>439.755512</ele>
        <time>2021-11-07T14:44:56.932Z</time>
      </trkpt>
      <trkpt lat="47.498925" lon="7.932781">
        <ele>439.877037</ele>
        <time>2021-11-07T14:44:58.639Z</time>
      </trkpt>
      <trkpt lat="47.498481" lon="7.933011">
        <ele>440.653143</ele>
        <time>2021-11-07T14:45:07.892Z</time>
      </trkpt>
      <trkpt lat="47.498431" lon="7.932995">
        <ele>440.737543</ele>
        <time>2021-11-07T14:45:09.115Z</time>
      </trkpt>
      <trkpt lat="47.498391" lon="7.932972">
        <ele>440.808342</ele>
        <time>2021-11-07T14:45:10.034Z</time>
      </trkpt>
      <trkpt lat="47.498196" lon="7.932613">
        <ele>441.321800</ele>
        <time>2021-11-07T14:45:16.757Z</time>
      </trkpt>
      <trkpt lat="47.498138" lon="7.932522">
        <ele>441.462179</ele>
        <time>2021-11-07T14:45:18.758Z</time>
      </trkpt>
      <trkpt lat="47.498068" lon="7.932426">
        <ele>441.626299</ele>
        <time>2021-11-07T14:45:21.205Z</time>
      </trkpt>
      <trkpt lat="47.497907" lon="7.932254">
        <ele>441.967779</ele>
        <time>2021-11-07T14:45:25.907Z</time>
      </trkpt>
      <trkpt lat="47.497676" lon="7.932013">
        <ele>442.453828</ele>
        <time>2021-11-07T14:45:32.386Z</time>
      </trkpt>
      <trkpt lat="47.497430" lon="7.931757">
        <ele>442.971005</ele>
        <time>2021-11-07T14:45:39.977Z</time>
      </trkpt>
      <trkpt lat="47.497221" lon="7.931528">
        <ele>443.418217</ele>
        <time>2021-11-07T14:45:45.974Z</time>
      </trkpt>
      <trkpt lat="47.497104" lon="7.931414">
        <ele>443.659122</ele>
        <time>2021-11-07T14:45:48.772Z</time>
      </trkpt>
      <trkpt lat="47.496998" lon="7.931330">
        <ele>443.865906</ele>
        <time>2021-11-07T14:45:51.183Z</time>
      </trkpt>
      <trkpt lat="47.496424" lon="7.931075">
        <ele>444.900102</ele>
        <time>2021-11-07T14:46:01.932Z</time>
      </trkpt>
      <trkpt lat="47.496205" lon="7.930904">
        <ele>445.330053</ele>
        <time>2021-11-07T14:46:05.951Z</time>
      </trkpt>
      <trkpt lat="47.496162" lon="7.930842">
        <ele>445.434292</ele>
        <time>2021-11-07T14:46:07.517Z</time>
      </trkpt>
      <trkpt lat="47.496117" lon="7.930763">
        <ele>445.555518</ele>
        <time>2021-11-07T14:46:08.785Z</time>
      </trkpt>
      <trkpt lat="47.496051" lon="7.930607">
        <ele>445.771458</ele>
        <time>2021-11-07T14:46:11.567Z</time>
      </trkpt>
      <trkpt lat="47.495985" lon="7.930428">
        <ele>446.010697</ele>
        <time>2021-11-07T14:46:14.399Z</time>
      </trkpt>
      <trkpt lat="47.495801" lon="7.929891">
        <ele>446.717093</ele>
        <time>2021-11-07T14:46:24.057Z</time>
      </trkpt>
      <trkpt lat="47.495622" lon="7.929400">
        <ele>447.371644</ele>
        <time>2021-11-07T14:46:32.669Z</time>
      </trkpt>
      <trkpt lat="47.495562" lon="7.929221">
        <ele>447.606072</ele>
        <time>2021-11-07T14:46:35.629Z</time>
      </trkpt>
      <trkpt lat="47.495530" lon="7.929063">
        <ele>447.937664</ele>
        <time>2021-11-07T14:46:38.103Z</time>
      </trkpt>
      <trkpt lat="47.495455" lon="7.928595">
        <ele>449.043989</ele>
        <time>2021-11-07T14:46:46.930Z</time>
      </trkpt>
      <trkpt lat="47.495268" lon="7.927740">
        <ele>451.111075</ele>
        <time>2021-11-07T14:47:03.940Z</time>
      </trkpt>
      <trkpt lat="47.495031" lon="7.927006">
        <ele>452.982262</ele>
        <time>2021-11-07T14:47:20.842Z</time>
      </trkpt>
      <trkpt lat="47.494945" lon="7.926765">
        <ele>453.609163</ele>
        <time>2021-11-07T14:47:27.485Z</time>
      </trkpt>
      <trkpt lat="47.494515" lon="7.925509">
        <ele>457.116536</ele>
        <time>2021-11-07T14:47:55.904Z</time>
      </trkpt>
      <trkpt lat="47.494438" lon="7.925289">
        <ele>457.736330</ele>
        <time>2021-11-07T14:48:01.337Z</time>
      </trkpt>
      <trkpt lat="47.494034" lon="7.924101">
        <ele>461.019040</ele>
        <time>2021-11-07T14:48:26.401Z</time>
      </trkpt>
      <trkpt lat="47.493708" lon="7.923049">
        <ele>463.708988</ele>
        <time>2021-11-07T14:48:47.973Z</time>
      </trkpt>
      <trkpt lat="47.493397" lon="7.921760">
        <ele>466.969591</ele>
        <time>2021-11-07T14:49:14.952Z</time>
      </trkpt>
      <trkpt lat="47.493307" lon="7.921373">
        <ele>468.206074</ele>
        <time>2021-11-07T14:49:23.446Z</time>
      </trkpt>
      <trkpt lat="47.493236" lon="7.921091">
        <ele>469.115251</ele>
        <time>2021-11-07T14:49:29.827Z</time>
      </trkpt>
      <trkpt lat="47.493132" lon="7.920716">
        <ele>470.339889</ele>
        <time>2021-11-07T14:49:38.877Z</time>
      </trkpt>
      <trkpt lat="47.492813" lon="7.919900">
        <ele>473.188013</ele>
        <time>2021-11-07T14:50:00.360Z</time>
      </trkpt>
      <trkpt lat="47.492584" lon="7.919482">
        <ele>474.813453</ele>
        <time>2021-11-07T14:50:13.132Z</time>
      </trkpt>
      <trkpt lat="47.492227" lon="7.918989">
        <ele>476.991589</ele>
        <time>2021-11-07T14:50:30.034Z</time>
      </trkpt>
      <trkpt lat="47.491324" lon="7.917985">
        <ele>482.029865</ele>
        <time>2021-11-07T14:51:06.819Z</time>
      </trkpt>
      <trkpt lat="47.490822" lon="7.917158">
        <ele>484.508208</ele>
        <time>2021-11-07T14:51:28.979Z</time>
      </trkpt>
      <trkpt lat="47.490607" lon="7.916690">
        <ele>485.660668</ele>
        <time>2021-11-07T14:51:39.177Z</time>
      </trkpt>
      <trkpt lat="47.490429" lon="7.916164">
        <ele>486.858660</ele>
        <time>2021-11-07T14:51:49.046Z</time>
      </trkpt>
      <trkpt lat="47.490283" lon="7.915612">
        <ele>488.065829</ele>
        <time>2021-11-07T14:51:58.874Z</time>
      </trkpt>
      <trkpt lat="47.489987" lon="7.914083">
        <ele>490.614504</ele>
        <time>2021-11-07T14:52:24.655Z</time>
      </trkpt>
      <trkpt lat="47.489951" lon="7.913893">
        <ele>490.929479</ele>
        <time>2021-11-07T14:52:27.649Z</time>
      </trkpt>
      <trkpt lat="47.489922" lon="7.913738">
        <ele>491.186199</ele>
        <time>2021-11-07T14:52:30.154Z</time>
      </trkpt>
      <trkpt lat="47.489843" lon="7.913398">
        <ele>491.760096</ele>
        <time>2021-11-07T14:52:35.501Z</time>
      </trkpt>
      <trkpt lat="47.489607" lon="7.912646">
        <ele>493.481504</ele>
        <time>2021-11-07T14:52:49.729Z</time>
      </trkpt>
      <trkpt lat="47.489216" lon="7.911685">
        <ele>496.257385</ele>
        <time>2021-11-07T14:53:12.043Z</time>
      </trkpt>
      <trkpt lat="47.489040" lon="7.911300">
        <ele>497.407643</ele>
        <time>2021-11-07T14:53:21.510Z</time>
      </trkpt>
      <trkpt lat="47.488908" lon="7.911009">
        <ele>498.274955</ele>
        <time>2021-11-07T14:53:30.071Z</time>
      </trkpt>
      <trkpt lat="47.488699" lon="7.910498">
        <ele>499.757561</ele>
        <time>2021-11-07T14:53:43.734Z</time>
      </trkpt>
      <trkpt lat="47.488366" lon="7.909318">
        <ele>502.939654</ele>
        <time>2021-11-07T14:54:09.606Z</time>
      </trkpt>
      <trkpt lat="47.488241" lon="7.908835">
        <ele>504.226692</ele>
        <time>2021-11-07T14:54:18.793Z</time>
      </trkpt>
      <trkpt lat="47.488185" lon="7.908663">
        <ele>504.701790</ele>
        <time>2021-11-07T14:54:22.845Z</time>
      </trkpt>
      <trkpt lat="47.488080" lon="7.908344">
        <ele>505.583403</ele>
        <time>2021-11-07T14:54:28.806Z</time>
      </trkpt>
      <trkpt lat="47.487763" lon="7.907711">
        <ele>507.353352</ele>
        <time>2021-11-07T14:54:43.863Z</time>
      </trkpt>
      <trkpt lat="47.487587" lon="7.907459">
        <ele>508.167494</ele>
        <time>2021-11-07T14:54:50.323Z</time>
      </trkpt>
      <trkpt lat="47.487378" lon="7.907191">
        <ele>509.086859</ele>
        <time>2021-11-07T14:54:57.522Z</time>
      </trkpt>
      <trkpt lat="47.487197" lon="7.906946">
        <ele>509.902335</ele>
        <time>2021-11-07T14:55:03.663Z</time>
      </trkpt>
      <trkpt lat="47.486969" lon="7.906583">
        <ele>511.015677</ele>
        <time>2021-11-07T14:55:11.972Z</time>
      </trkpt>
      <trkpt lat="47.486769" lon="7.905976">
        <ele>513.239503</ele>
        <time>2021-11-07T14:55:28.001Z</time>
      </trkpt>
      <trkpt lat="47.486724" lon="7.905485">
        <ele>515.153336</ele>
        <time>2021-11-07T14:55:40.672Z</time>
      </trkpt>
      <trkpt lat="47.486755" lon="7.904487">
        <ele>519.012147</ele>
        <time>2021-11-07T14:56:07.539Z</time>
      </trkpt>
      <trkpt lat="47.486721" lon="7.904326">
        <ele>519.663663</ele>
        <time>2021-11-07T14:56:12.554Z</time>
      </trkpt>
      <trkpt lat="47.486688" lon="7.904238">
        <ele>520.052388</ele>
        <time>2021-11-07T14:56:15.708Z</time>
      </trkpt>
      <trkpt lat="47.486480" lon="7.904016">
        <ele>521.518222</ele>
        <time>2021-11-07T14:56:24.813Z</time>
      </trkpt>
      <trkpt lat="47.486247" lon="7.904043">
        <ele>522.722232</ele>
        <time>2021-11-07T14:56:33.481Z</time>
      </trkpt>
      <trkpt lat="47.486049" lon="7.904262">
        <ele>523.953104</ele>
        <time>2021-11-07T14:56:44.876Z</time>
      </trkpt>
      <trkpt lat="47.485593" lon="7.905145">
        <ele>527.692563</ele>
        <time>2021-11-07T14:57:14.643Z</time>
      </trkpt>
      <trkpt lat="47.485331" lon="7.905337">
        <ele>529.148359</ele>
        <time>2021-11-07T14:57:23.227Z</time>
      </trkpt>
      <trkpt lat="47.485073" lon="7.905345">
        <ele>530.433308</ele>
        <time>2021-11-07T14:57:29.839Z</time>
      </trkpt>
      <trkpt lat="47.485049" lon="7.905336">
        <ele>530.556590</ele>
        <time>2021-11-07T14:57:31.436Z</time>
      </trkpt>
      <trkpt lat="47.484936" lon="7.905289">
        <ele>530.681868</ele>
        <time>2021-11-07T14:57:34.065Z</time>
      </trkpt>
      <trkpt lat="47.484713" lon="7.905133">
        <ele>530.317822</ele>
        <time>2021-11-07T14:57:39.685Z</time>
      </trkpt>
      <trkpt lat="47.484481" lon="7.904947">
        <ele>529.928392</ele>
        <time>2021-11-07T14:57:43.062Z</time>
      </trkpt>
      <trkpt lat="47.484248" lon="7.904856">
        <ele>529.572735</ele>
        <time>2021-11-07T14:57:46.090Z</time>
      </trkpt>
      <trkpt lat="47.484124" lon="7.904824">
        <ele>529.386964</ele>
        <time>2021-11-07T14:57:47.567Z</time>
      </trkpt>
      <trkpt lat="47.484064" lon="7.904808">
        <ele>529.296984</ele>
        <time>2021-11-07T14:57:48.236Z</time>
      </trkpt>
      <trkpt lat="47.484005" lon="7.904793">
        <ele>529.208631</ele>
        <time>2021-11-07T14:57:48.968Z</time>
      </trkpt>
      <trkpt lat="47.483385" lon="7.904708">
        <ele>528.289666</ele>
        <time>2021-11-07T14:57:55.422Z</time>
      </trkpt>
      <trkpt lat="47.483329" lon="7.904705">
        <ele>528.206962</ele>
        <time>2021-11-07T14:57:55.929Z</time>
      </trkpt>
      <trkpt lat="47.483101" lon="7.904680">
        <ele>526.893106</ele>
        <time>2021-11-07T14:57:58.058Z</time>
      </trkpt>
      <trkpt lat="47.482433" lon="7.904538">
        <ele>522.195461</ele>
        <time>2021-11-07T14:58:04.029Z</time>
      </trkpt>
      <trkpt lat="47.482157" lon="7.904346">
        <ele>520.072512</ele>
        <time>2021-11-07T14:58:06.737Z</time>
      </trkpt>
      <trkpt lat="47.481709" lon="7.903892">
        <ele>516.292750</ele>
        <time>2021-11-07T14:58:11.527Z</time>
      </trkpt>
      <trkpt lat="47.481588" lon="7.903776">
        <ele>515.359947</ele>
        <time>2021-11-07T14:58:12.807Z</time>
      </trkpt>
      <trkpt lat="47.481478" lon="7.903693">
        <ele>514.688909</ele>
        <time>2021-11-07T14:58:13.928Z</time>
      </trkpt>
      <trkpt lat="47.480980" lon="7.903461">
        <ele>511.851544</ele>
        <time>2021-11-07T14:58:18.772Z</time>
      </trkpt>
      <trkpt lat="47.480363" lon="7.903391">
        <ele>508.488597</ele>
        <time>2021-11-07T14:58:24.638Z</time>
      </trkpt>
      <trkpt lat="47.478757" lon="7.903210">
        <ele>500.051838</ele>
        <time>2021-11-07T14:58:39.978Z</time>
      </trkpt>
      <trkpt lat="47.478367" lon="7.903166">
        <ele>498.036433</ele>
        <time>2021-11-07T14:58:43.704Z</time>
      </trkpt>
      <trkpt lat="47.478182" lon="7.903109">
        <ele>497.062725</ele>
        <time>2021-11-07T14:58:45.460Z</time>
      </trkpt>
      <trkpt lat="47.478118" lon="7.903075">
        <ele>496.712335</ele>
        <time>2021-11-07T14:58:46.060Z</time>
      </trkpt>
      <trkpt lat="47.476982" lon="7.902234">
        <ele>488.359351</ele>
        <time>2021-11-07T14:58:57.439Z</time>
      </trkpt>
      <trkpt lat="47.476536" lon="7.901977">
        <ele>485.196769</ele>
        <time>2021-11-07T14:59:01.807Z</time>
      </trkpt>
      <trkpt lat="47.476364" lon="7.901870">
        <ele>484.059173</ele>
        <time>2021-11-07T14:59:03.502Z</time>
      </trkpt>
      <trkpt lat="47.475300" lon="7.901112">
        <ele>477.287616</ele>
        <time>2021-11-07T14:59:14.411Z</time>
      </trkpt>
      <trkpt lat="47.475163" lon="7.901034">
        <ele>476.445881</ele>
        <time>2021-11-07T14:59:15.737Z</time>
      </trkpt>
      <trkpt lat="47.474888" lon="7.900841">
        <ele>474.700575</ele>
        <time>2021-11-07T14:59:18.590Z</time>
      </trkpt>
      <trkpt lat="47.474617" lon="7.900560">
        <ele>473.039679</ele>
        <time>2021-11-07T14:59:21.719Z</time>
      </trkpt>
      <trkpt lat="47.474336" lon="7.900125">
        <ele>471.059599</ele>
        <time>2021-11-07T14:59:25.561Z</time>
      </trkpt>
      <trkpt lat="47.474186" lon="7.899915">
        <ele>470.054175</ele>
        <time>2021-11-07T14:59:27.496Z</time>
      </trkpt>
      <trkpt lat="47.474087" lon="7.899774">
        <ele>469.385142</ele>
        <time>2021-11-07T14:59:28.807Z</time>
      </trkpt>
      <trkpt lat="47.473931" lon="7.899567">
        <ele>468.364920</ele>
        <time>2021-11-07T14:59:30.767Z</time>
      </trkpt>
      <trkpt lat="47.473317" lon="7.898945">
        <ele>464.694647</ele>
        <time>2021-11-07T14:59:38.007Z</time>
      </trkpt>
      <trkpt lat="47.471910" lon="7.898392">
        <ele>457.222222</ele>
        <time>2021-11-07T14:59:51.601Z</time>
      </trkpt>
      <trkpt lat="47.471825" lon="7.898370">
        <ele>456.779304</ele>
        <time>2021-11-07T14:59:52.388Z</time>
      </trkpt>
      <trkpt lat="47.471597" lon="7.898344">
        <ele>455.719251</ele>
        <time>2021-11-07T14:59:54.541Z</time>
      </trkpt>
      <trkpt lat="47.471002" lon="7.898222">
        <ele>453.087469</ele>
        <time>2021-11-07T15:00:00.135Z</time>
      </trkpt>
      <trkpt lat="47.469999" lon="7.897879">
        <ele>448.577161</ele>
        <time>2021-11-07T15:00:10.135Z</time>
      </trkpt>
      <trkpt lat="47.469806" lon="7.897795">
        <ele>448.243357</ele>
        <time>2021-11-07T15:00:12.277Z</time>
      </trkpt>
      <trkpt lat="47.469534" lon="7.897638">
        <ele>447.833268</ele>
        <time>2021-11-07T15:00:15.495Z</time>
      </trkpt>
      <trkpt lat="47.469456" lon="7.897860">
        <ele>447.595718</ele>
        <time>2021-11-07T15:00:17.564Z</time>
      </trkpt>
      <trkpt lat="47.469155" lon="7.898409">
        <ele>446.924571</ele>
        <time>2021-11-07T15:00:23.068Z</time>
      </trkpt>
      <trkpt lat="47.469026" lon="7.898570">
        <ele>446.687514</ele>
        <time>2021-11-07T15:00:25.233Z</time>
      </trkpt>
      <trkpt lat="47.468974" lon="7.898632">
        <ele>446.593708</ele>
        <time>2021-11-07T15:00:26.168Z</time>
      </trkpt>
      <trkpt lat="47.468719" lon="7.898908">
        <ele>446.149916</ele>
        <time>2021-11-07T15:00:30.249Z</time>
      </trkpt>
      <trkpt lat="47.468595" lon="7.899046">
        <ele>445.996242</ele>
        <time>2021-11-07T15:00:32.391Z</time>
      </trkpt>
      <trkpt lat="47.468210" lon="7.899465">
        <ele>446.317048</ele>
        <time>2021-11-07T15:00:40.445Z</time>
      </trkpt>
      <trkpt lat="47.467978" lon="7.899694">
        <ele>446.504247</ele>
        <time>2021-11-07T15:00:45.134Z</time>
      </trkpt>
      <trkpt lat="47.467778" lon="7.899859">
        <ele>446.657950</ele>
        <time>2021-11-07T15:00:49.151Z</time>
      </trkpt>
      <trkpt lat="47.467497" lon="7.900103">
        <ele>446.876647</ele>
        <time>2021-11-07T15:00:54.736Z</time>
      </trkpt>
      <trkpt lat="47.467245" lon="7.900444">
        <ele>447.105879</ele>
        <time>2021-11-07T15:01:01.279Z</time>
      </trkpt>
      <trkpt lat="47.467108" lon="7.900644">
        <ele>447.339462</ele>
        <time>2021-11-07T15:01:05.459Z</time>
      </trkpt>
      <trkpt lat="47.467055" lon="7.900572">
        <ele>447.484019</ele>
        <time>2021-11-07T15:01:06.811Z</time>
      </trkpt>
      <trkpt lat="47.467018" lon="7.900523">
        <ele>447.583783</ele>
        <time>2021-11-07T15:01:07.805Z</time>
      </trkpt>
      <trkpt lat="47.467055" lon="7.900572">
        <ele>447.683547</ele>
        <time>2021-11-07T15:01:08.869Z</time>
      </trkpt>
      <trkpt lat="47.467108" lon="7.900644">
        <ele>447.828105</ele>
        <time>2021-11-07T15:01:10.579Z</time>
      </trkpt>
      <trkpt lat="47.466605" lon="7.901426">
        <ele>449.294009</ele>
        <time>2021-11-07T15:01:27.494Z</time>
      </trkpt>
      <trkpt lat="47.466371" lon="7.901784">
        <ele>449.970286</ele>
        <time>2021-11-07T15:01:35.558Z</time>
      </trkpt>
      <trkpt lat="47.465938" lon="7.902461">
        <ele>451.264150</ele>
        <time>2021-11-07T15:01:50.942Z</time>
      </trkpt>
      <trkpt lat="47.465643" lon="7.902890">
        <ele>452.148429</ele>
        <time>2021-11-07T15:02:00.949Z</time>
      </trkpt>
      <trkpt lat="47.465577" lon="7.902991">
        <ele>452.351420</ele>
        <time>2021-11-07T15:02:03.264Z</time>
      </trkpt>
      <trkpt lat="47.465231" lon="7.903593">
        <ele>453.493255</ele>
        <time>2021-11-07T15:02:15.371Z</time>
      </trkpt>
      <trkpt lat="47.463753" lon="7.907066">
        <ele>459.386311</ele>
        <time>2021-11-07T15:03:18.220Z</time>
      </trkpt>
      <trkpt lat="47.463375" lon="7.907958">
        <ele>461.275183</ele>
        <time>2021-11-07T15:03:37.840Z</time>
      </trkpt>
      <trkpt lat="47.463144" lon="7.908499">
        <ele>462.423255</ele>
        <time>2021-11-07T15:03:49.475Z</time>
      </trkpt>
      <trkpt lat="47.463026" lon="7.908779">
        <ele>463.007841</ele>
        <time>2021-11-07T15:03:55.865Z</time>
      </trkpt>
      <trkpt lat="47.461915" lon="7.911456">
        <ele>466.294332</ele>
        <time>2021-11-07T15:04:40.786Z</time>
      </trkpt>
      <trkpt lat="47.461598" lon="7.912222">
        <ele>466.777426</ele>
        <time>2021-11-07T15:04:49.470Z</time>
      </trkpt>
      <trkpt lat="47.461501" lon="7.912447">
        <ele>466.920966</ele>
        <time>2021-11-07T15:04:52.084Z</time>
      </trkpt>
      <trkpt lat="47.461343" lon="7.912835">
        <ele>467.164607</ele>
        <time>2021-11-07T15:04:57.595Z</time>
      </trkpt>
      <trkpt lat="47.461328" lon="7.912870">
        <ele>467.186898</ele>
        <time>2021-11-07T15:04:57.967Z</time>
      </trkpt>
      <trkpt lat="47.461271" lon="7.913000">
        <ele>467.270244</ele>
        <time>2021-11-07T15:05:00.086Z</time>
      </trkpt>
      <trkpt lat="47.461207" lon="7.913109">
        <ele>467.347900</ele>
        <time>2021-11-07T15:05:01.884Z</time>
      </trkpt>
      <trkpt lat="47.461143" lon="7.913171">
        <ele>467.408769</ele>
        <time>2021-11-07T15:05:03.271Z</time>
      </trkpt>
      <trkpt lat="47.461164" lon="7.913273">
        <ele>467.485828</ele>
        <time>2021-11-07T15:05:04.246Z</time>
      </trkpt>
      <trkpt lat="47.461278" lon="7.913570">
        <ele>468.334503</ele>
        <time>2021-11-07T15:05:09.476Z</time>
      </trkpt>
      <trkpt lat="47.461299" lon="7.913673">
        <ele>468.601837</ele>
        <time>2021-11-07T15:05:10.861Z</time>
      </trkpt>
      <trkpt lat="47.461281" lon="7.913929">
        <ele>469.241413</ele>
        <time>2021-11-07T15:05:15.537Z</time>
      </trkpt>
      <trkpt lat="47.461271" lon="7.914302">
        <ele>470.169024</ele>
        <time>2021-11-07T15:05:21.630Z</time>
      </trkpt>
      <trkpt lat="47.461285" lon="7.914482">
        <ele>470.619263</ele>
        <time>2021-11-07T15:05:25.811Z</time>
      </trkpt>
      <trkpt lat="47.461301" lon="7.914694">
        <ele>471.149343</ele>
        <time>2021-11-07T15:05:31.039Z</time>
      </trkpt>
      <trkpt lat="47.461322" lon="7.915151">
        <ele>472.287580</ele>
        <time>2021-11-07T15:05:41.072Z</time>
      </trkpt>
      <trkpt lat="47.461338" lon="7.915497">
        <ele>473.149378</ele>
        <time>2021-11-07T15:05:49.130Z</time>
      </trkpt>
      <trkpt lat="47.461330" lon="7.915634">
        <ele>473.491082</ele>
        <time>2021-11-07T15:05:52.497Z</time>
      </trkpt>
      <trkpt lat="47.461283" lon="7.915854">
        <ele>474.064412</ele>
        <time>2021-11-07T15:05:58.324Z</time>
      </trkpt>
      <trkpt lat="47.461188" lon="7.916015">
        <ele>474.755640</ele>
        <time>2021-11-07T15:06:03.718Z</time>
      </trkpt>
      <trkpt lat="47.460901" lon="7.916489">
        <ele>476.820338</ele>
        <time>2021-11-07T15:06:19.185Z</time>
      </trkpt>
      <trkpt lat="47.460876" lon="7.916582">
        <ele>477.145089</ele>
        <time>2021-11-07T15:06:22.478Z</time>
      </trkpt>
      <trkpt lat="47.460905" lon="7.916689">
        <ele>477.519149</ele>
        <time>2021-11-07T15:06:24.776Z</time>
      </trkpt>
      <trkpt lat="47.460987" lon="7.916828">
        <ele>478.117746</ele>
        <time>2021-11-07T15:06:28.675Z</time>
      </trkpt>
      <trkpt lat="47.461106" lon="7.916982">
        <ele>478.876628</ele>
        <time>2021-11-07T15:06:34.744Z</time>
      </trkpt>
      <trkpt lat="47.461215" lon="7.917124">
        <ele>479.573753</ele>
        <time>2021-11-07T15:06:39.215Z</time>
      </trkpt>
      <trkpt lat="47.461435" lon="7.917389">
        <ele>480.935471</ele>
        <time>2021-11-07T15:06:49.404Z</time>
      </trkpt>
      <trkpt lat="47.461669" lon="7.917595">
        <ele>482.242410</ele>
        <time>2021-11-07T15:06:58.203Z</time>
      </trkpt>
      <trkpt lat="47.462143" lon="7.918024">
        <ele>484.189847</ele>
        <time>2021-11-07T15:07:14.164Z</time>
      </trkpt>
      <trkpt lat="47.462363" lon="7.918249">
        <ele>485.054697</ele>
        <time>2021-11-07T15:07:21.134Z</time>
      </trkpt>
      <trkpt lat="47.462945" lon="7.918869">
        <ele>487.373841</ele>
        <time>2021-11-07T15:07:39.661Z</time>
      </trkpt>
      <trkpt lat="47.463461" lon="7.919439">
        <ele>489.767461</ele>
        <time>2021-11-07T15:07:57.664Z</time>
      </trkpt>
      <trkpt lat="47.463765" lon="7.919763">
        <ele>491.381703</ele>
        <time>2021-11-07T15:08:08.533Z</time>
      </trkpt>
      <trkpt lat="47.464024" lon="7.919978">
        <ele>492.661220</ele>
        <time>2021-11-07T15:08:17.319Z</time>
      </trkpt>
      <trkpt lat="47.464134" lon="7.920084">
        <ele>493.226811</ele>
        <time>2021-11-07T15:08:21.577Z</time>
      </trkpt>
      <trkpt lat="47.464357" lon="7.920402">
        <ele>494.561277</ele>
        <time>2021-11-07T15:08:31.652Z</time>
      </trkpt>
      <trkpt lat="47.464957" lon="7.921200">
        <ele>498.950830</ele>
        <time>2021-11-07T15:09:02.739Z</time>
      </trkpt>
      <trkpt lat="47.465510" lon="7.922001">
        <ele>504.007236</ele>
        <time>2021-11-07T15:09:35.361Z</time>
      </trkpt>
      <trkpt lat="47.465661" lon="7.922236">
        <ele>505.439148</ele>
        <time>2021-11-07T15:09:43.666Z</time>
      </trkpt>
      <trkpt lat="47.465674" lon="7.922268">
        <ele>505.604032</ele>
        <time>2021-11-07T15:09:45.947Z</time>
      </trkpt>
      <trkpt lat="47.465862" lon="7.922754">
        <ele>508.069541</ele>
        <time>2021-11-07T15:10:02.006Z</time>
      </trkpt>
      <trkpt lat="47.466243" lon="7.923649">
        <ele>512.135386</ele>
        <time>2021-11-07T15:10:31.561Z</time>
      </trkpt>
      <trkpt lat="47.466439" lon="7.924357">
        <ele>515.076410</ele>
        <time>2021-11-07T15:10:51.151Z</time>
      </trkpt>
      <trkpt lat="47.466944" lon="7.927647">
        <ele>526.084760</ele>
        <time>2021-11-07T15:12:04.078Z</time>
      </trkpt>
      <trkpt lat="47.466921" lon="7.927833">
        <ele>526.813539</ele>
        <time>2021-11-07T15:12:08.318Z</time>
      </trkpt>
      <trkpt lat="47.466887" lon="7.928012">
        <ele>527.739420</ele>
        <time>2021-11-07T15:12:13.876Z</time>
      </trkpt>
      <trkpt lat="47.466793" lon="7.929314">
        <ele>534.259849</ele>
        <time>2021-11-07T15:12:47.893Z</time>
      </trkpt>
      <trkpt lat="47.466726" lon="7.929710">
        <ele>536.292633</ele>
        <time>2021-11-07T15:13:00.583Z</time>
      </trkpt>
      <trkpt lat="47.466646" lon="7.930061">
        <ele>538.137178</ele>
        <time>2021-11-07T15:13:13.252Z</time>
      </trkpt>
      <trkpt lat="47.466575" lon="7.930358">
        <ele>539.738909</ele>
        <time>2021-11-07T15:13:24.179Z</time>
      </trkpt>
      <trkpt lat="47.466500" lon="7.930593">
        <ele>542.536854</ele>
        <time>2021-11-07T15:13:36.335Z</time>
      </trkpt>
      <trkpt lat="47.466307" lon="7.931138">
        <ele>549.161030</ele>
        <time>2021-11-07T15:14:03.613Z</time>
      </trkpt>
      <trkpt lat="47.466183" lon="7.931564">
        <ele>554.154740</ele>
        <time>2021-11-07T15:14:25.555Z</time>
      </trkpt>
      <trkpt lat="47.466006" lon="7.931849">
        <ele>558.321570</ele>
        <time>2021-11-07T15:14:46.716Z</time>
      </trkpt>
      <trkpt lat="47.465737" lon="7.932210">
        <ele>564.106187</ele>
        <time>2021-11-07T15:15:22.065Z</time>
      </trkpt>
      <trkpt lat="47.465665" lon="7.932336">
        <ele>565.882515</ele>
        <time>2021-11-07T15:15:33.976Z</time>
      </trkpt>
      <trkpt lat="47.465418" lon="7.932899">
        <ele>573.650993</ele>
        <time>2021-11-07T15:16:18.043Z</time>
      </trkpt>
      <trkpt lat="47.465232" lon="7.933199">
        <ele>578.530322</ele>
        <time>2021-11-07T15:16:45.156Z</time>
      </trkpt>
      <trkpt lat="47.465050" lon="7.933530">
        <ele>583.644591</ele>
        <time>2021-11-07T15:17:09.901Z</time>
      </trkpt>
      <trkpt lat="47.465012" lon="7.933701">
        <ele>585.802235</ele>
        <time>2021-11-07T15:17:22.914Z</time>
      </trkpt>
      <trkpt lat="47.464881" lon="7.934583">
        <ele>596.626764</ele>
        <time>2021-11-07T15:18:11.912Z</time>
      </trkpt>
      <trkpt lat="47.464859" lon="7.934732">
        <ele>598.454906</ele>
        <time>2021-11-07T15:18:21.299Z</time>
      </trkpt>
      <trkpt lat="47.464825" lon="7.935465">
        <ele>601.907479</ele>
        <time>2021-11-07T15:18:51.325Z</time>
      </trkpt>
      <trkpt lat="47.464704" lon="7.936449">
        <ele>604.786633</ele>
        <time>2021-11-07T15:19:11.363Z</time>
      </trkpt>
      <trkpt lat="47.464590" lon="7.936822">
        <ele>605.965036</ele>
        <time>2021-11-07T15:19:15.319Z</time>
      </trkpt>
      <trkpt lat="47.464587" lon="7.937012">
        <ele>606.512147</ele>
        <time>2021-11-07T15:19:17.652Z</time>
      </trkpt>
      <trkpt lat="47.464629" lon="7.937113">
        <ele>606.853501</ele>
        <time>2021-11-07T15:19:19.086Z</time>
      </trkpt>
      <trkpt lat="47.464677" lon="7.937153">
        <ele>607.088100</ele>
        <time>2021-11-07T15:19:19.562Z</time>
      </trkpt>
      <trkpt lat="47.464942" lon="7.936904">
        <ele>607.757340</ele>
        <time>2021-11-07T15:19:23.631Z</time>
      </trkpt>
      <trkpt lat="47.465246" lon="7.936375">
        <ele>607.333495</ele>
        <time>2021-11-07T15:19:28.270Z</time>
      </trkpt>
      <trkpt lat="47.466275" lon="7.934206">
        <ele>609.837265</ele>
        <time>2021-11-07T15:19:52.975Z</time>
      </trkpt>
      <trkpt lat="47.466525" lon="7.933862">
        <ele>611.908275</ele>
        <time>2021-11-07T15:20:07.305Z</time>
      </trkpt>
      <trkpt lat="47.466714" lon="7.933768">
        <ele>613.117725</ele>
        <time>2021-11-07T15:20:17.207Z</time>
      </trkpt>
      <trkpt lat="47.467031" lon="7.933835">
        <ele>615.060030</ele>
        <time>2021-11-07T15:20:34.491Z</time>
      </trkpt>
      <trkpt lat="47.467421" lon="7.934263">
        <ele>618.531188</ele>
        <time>2021-11-07T15:21:03.029Z</time>
      </trkpt>
      <trkpt lat="47.467864" lon="7.935123">
        <ele>625.720120</ele>
        <time>2021-11-07T15:21:49.250Z</time>
      </trkpt>
      <trkpt lat="47.467994" lon="7.935499">
        <ele>628.528093</ele>
        <time>2021-11-07T15:22:06.602Z</time>
      </trkpt>
      <trkpt lat="47.468621" lon="7.938578">
        <ele>643.956256</ele>
        <time>2021-11-07T15:23:38.907Z</time>
      </trkpt>
      <trkpt lat="47.469024" lon="7.940035">
        <ele>646.972353</ele>
        <time>2021-11-07T15:24:03.883Z</time>
      </trkpt>
      <trkpt lat="47.469060" lon="7.940284">
        <ele>647.280114</ele>
        <time>2021-11-07T15:24:07.028Z</time>
      </trkpt>
      <trkpt lat="47.469067" lon="7.940555">
        <ele>647.607897</ele>
        <time>2021-11-07T15:24:11.015Z</time>
      </trkpt>
      <trkpt lat="47.469037" lon="7.942114">
        <ele>649.067702</ele>
        <time>2021-11-07T15:24:29.876Z</time>
      </trkpt>
      <trkpt lat="47.469044" lon="7.942317">
        <ele>649.170035</ele>
        <time>2021-11-07T15:24:32.420Z</time>
      </trkpt>
      <trkpt lat="47.469058" lon="7.942569">
        <ele>649.297332</ele>
        <time>2021-11-07T15:24:35.262Z</time>
      </trkpt>
      <trkpt lat="47.469215" lon="7.943133">
        <ele>649.604409</ele>
        <time>2021-11-07T15:24:43.244Z</time>
      </trkpt>
      <trkpt lat="47.469517" lon="7.943834">
        <ele>650.022904</ele>
        <time>2021-11-07T15:24:53.535Z</time>
      </trkpt>
      <trkpt lat="47.469843" lon="7.944430">
        <ele>649.750661</ele>
        <time>2021-11-07T15:25:01.916Z</time>
      </trkpt>
      <trkpt lat="47.470096" lon="7.944809">
        <ele>649.440499</ele>
        <time>2021-11-07T15:25:06.889Z</time>
      </trkpt>
      <trkpt lat="47.470904" lon="7.946018">
        <ele>648.101664</ele>
        <time>2021-11-07T15:25:20.313Z</time>
      </trkpt>
      <trkpt lat="47.471580" lon="7.947013">
        <ele>644.518716</ele>
        <time>2021-11-07T15:25:29.964Z</time>
      </trkpt>
      <trkpt lat="47.471655" lon="7.947281">
        <ele>643.782028</ele>
        <time>2021-11-07T15:25:31.812Z</time>
      </trkpt>
      <trkpt lat="47.471588" lon="7.947530">
        <ele>643.101361</ele>
        <time>2021-11-07T15:25:33.716Z</time>
      </trkpt>
      <trkpt lat="47.471526" lon="7.947625">
        <ele>642.765977</ele>
        <time>2021-11-07T15:25:34.537Z</time>
      </trkpt>
      <trkpt lat="47.471433" lon="7.947675">
        <ele>642.394187</ele>
        <time>2021-11-07T15:25:35.441Z</time>
      </trkpt>
      <trkpt lat="47.470644" lon="7.947609">
        <ele>636.579565</ele>
        <time>2021-11-07T15:25:42.679Z</time>
      </trkpt>
      <trkpt lat="47.470424" lon="7.947722">
        <ele>634.654605</ele>
        <time>2021-11-07T15:25:44.732Z</time>
      </trkpt>
      <trkpt lat="47.470368" lon="7.947828">
        <ele>633.902912</ele>
        <time>2021-11-07T15:25:45.528Z</time>
      </trkpt>
      <trkpt lat="47.470333" lon="7.948107">
        <ele>632.317402</ele>
        <time>2021-11-07T15:25:47.215Z</time>
      </trkpt>
      <trkpt lat="47.470426" lon="7.948527">
        <ele>629.847986</ele>
        <time>2021-11-07T15:25:49.792Z</time>
      </trkpt>
      <trkpt lat="47.470338" lon="7.948724">
        <ele>628.528636</ele>
        <time>2021-11-07T15:25:51.178Z</time>
      </trkpt>
      <trkpt lat="47.470241" lon="7.948800">
        <ele>627.621347</ele>
        <time>2021-11-07T15:25:52.123Z</time>
      </trkpt>
      <trkpt lat="47.470079" lon="7.948808">
        <ele>625.835607</ele>
        <time>2021-11-07T15:25:53.512Z</time>
      </trkpt>
      <trkpt lat="47.469762" lon="7.948654">
        <ele>621.178321</ele>
        <time>2021-11-07T15:25:56.328Z</time>
      </trkpt>
      <trkpt lat="47.469469" lon="7.948624">
        <ele>617.078734</ele>
        <time>2021-11-07T15:25:58.780Z</time>
      </trkpt>
      <trkpt lat="47.469180" lon="7.948713">
        <ele>612.958281</ele>
        <time>2021-11-07T15:26:01.234Z</time>
      </trkpt>
      <trkpt lat="47.468810" lon="7.949041">
        <ele>606.937355</ele>
        <time>2021-11-07T15:26:04.806Z</time>
      </trkpt>
      <trkpt lat="47.468558" lon="7.949650">
        <ele>600.292305</ele>
        <time>2021-11-07T15:26:08.811Z</time>
      </trkpt>
      <trkpt lat="47.468441" lon="7.950143">
        <ele>595.642905</ele>
        <time>2021-11-07T15:26:11.744Z</time>
      </trkpt>
      <trkpt lat="47.468300" lon="7.950849">
        <ele>589.092184</ele>
        <time>2021-11-07T15:26:15.894Z</time>
      </trkpt>
      <trkpt lat="47.468208" lon="7.951691">
        <ele>581.502461</ele>
        <time>2021-11-07T15:26:20.753Z</time>
      </trkpt>
      <trkpt lat="47.468258" lon="7.952349">
        <ele>576.605395</ele>
        <time>2021-11-07T15:26:24.599Z</time>
      </trkpt>
      <trkpt lat="47.468338" lon="7.952658">
        <ele>574.816106</ele>
        <time>2021-11-07T15:26:26.552Z</time>
      </trkpt>
      <trkpt lat="47.468688" lon="7.953623">
        <ele>568.894191</ele>
        <time>2021-11-07T15:26:33.106Z</time>
      </trkpt>
      <trkpt lat="47.468825" lon="7.953883">
        <ele>567.111574</ele>
        <time>2021-11-07T15:26:35.121Z</time>
      </trkpt>
      <trkpt lat="47.469129" lon="7.954175">
        <ele>564.212113</ele>
        <time>2021-11-07T15:26:38.416Z</time>
      </trkpt>
      <trkpt lat="47.469948" lon="7.954438">
        <ele>558.327773</ele>
        <time>2021-11-07T15:26:46.047Z</time>
      </trkpt>
      <trkpt lat="47.470173" lon="7.954771">
        <ele>556.115706</ele>
        <time>2021-11-07T15:26:48.903Z</time>
      </trkpt>
      <trkpt lat="47.470344" lon="7.955464">
        <ele>552.649698</ele>
        <time>2021-11-07T15:26:53.339Z</time>
      </trkpt>
      <trkpt lat="47.470551" lon="7.956984">
        <ele>544.875664</ele>
        <time>2021-11-07T15:27:02.694Z</time>
      </trkpt>
      <trkpt lat="47.470611" lon="7.957558">
        <ele>541.920267</ele>
        <time>2021-11-07T15:27:06.188Z</time>
      </trkpt>
      <trkpt lat="47.470622" lon="7.958630">
        <ele>536.444374</ele>
        <time>2021-11-07T15:27:12.622Z</time>
      </trkpt>
      <trkpt lat="47.470999" lon="7.960100">
        <ele>528.312793</ele>
        <time>2021-11-07T15:27:22.033Z</time>
      </trkpt>
      <trkpt lat="47.471231" lon="7.960809">
        <ele>524.238845</ele>
        <time>2021-11-07T15:27:26.768Z</time>
      </trkpt>
      <trkpt lat="47.471575" lon="7.961333">
        <ele>521.276737</ele>
        <time>2021-11-07T15:27:31.228Z</time>
      </trkpt>
      <trkpt lat="47.471579" lon="7.961404">
        <ele>520.994247</ele>
        <time>2021-11-07T15:27:31.627Z</time>
      </trkpt>
      <trkpt lat="47.471568" lon="7.961446">
        <ele>520.815654</ele>
        <time>2021-11-07T15:27:31.884Z</time>
      </trkpt>
      <trkpt lat="47.471484" lon="7.961507">
        <ele>520.266770</ele>
        <time>2021-11-07T15:27:32.788Z</time>
      </trkpt>
      <trkpt lat="47.471375" lon="7.961461">
        <ele>519.601898</ele>
        <time>2021-11-07T15:27:33.901Z</time>
      </trkpt>
      <trkpt lat="47.470924" lon="7.960881">
        <ele>516.096607</ele>
        <time>2021-11-07T15:27:39.340Z</time>
      </trkpt>
      <trkpt lat="47.470268" lon="7.959615">
        <ele>511.300845</ele>
        <time>2021-11-07T15:27:50.039Z</time>
      </trkpt>
      <trkpt lat="47.469974" lon="7.958722">
        <ele>509.019409</ele>
        <time>2021-11-07T15:27:56.962Z</time>
      </trkpt>
      <trkpt lat="47.469781" lon="7.958087">
        <ele>507.420245</ele>
        <time>2021-11-07T15:28:01.755Z</time>
      </trkpt>
      <trkpt lat="47.469604" lon="7.957623">
        <ele>505.691714</ele>
        <time>2021-11-07T15:28:05.306Z</time>
      </trkpt>
      <trkpt lat="47.469296" lon="7.957034">
        <ele>503.195102</ele>
        <time>2021-11-07T15:28:10.188Z</time>
      </trkpt>
      <trkpt lat="47.469049" lon="7.956742">
        <ele>501.626933</ele>
        <time>2021-11-07T15:28:13.264Z</time>
      </trkpt>
      <trkpt lat="47.468875" lon="7.956583">
        <ele>500.612574</ele>
        <time>2021-11-07T15:28:15.117Z</time>
      </trkpt>
      <trkpt lat="47.468475" lon="7.956375">
        <ele>498.509693</ele>
        <time>2021-11-07T15:28:18.923Z</time>
      </trkpt>
      <trkpt lat="47.468322" lon="7.956470">
        <ele>497.138657</ele>
        <time>2021-11-07T15:28:20.518Z</time>
      </trkpt>
      <trkpt lat="47.468267" lon="7.956746">
        <ele>495.404564</ele>
        <time>2021-11-07T15:28:22.268Z</time>
      </trkpt>
      <trkpt lat="47.468479" lon="7.957453">
        <ele>490.743430</ele>
        <time>2021-11-07T15:28:26.867Z</time>
      </trkpt>
      <trkpt lat="47.468507" lon="7.957558">
        <ele>490.063189</ele>
        <time>2021-11-07T15:28:27.535Z</time>
      </trkpt>
      <trkpt lat="47.468524" lon="7.957646">
        <ele>489.511625</ele>
        <time>2021-11-07T15:28:28.051Z</time>
      </trkpt>
      <trkpt lat="47.468536" lon="7.958296">
        <ele>485.592925</ele>
        <time>2021-11-07T15:28:31.891Z</time>
      </trkpt>
      <trkpt lat="47.468627" lon="7.958965">
        <ele>481.292887</ele>
        <time>2021-11-07T15:28:35.824Z</time>
      </trkpt>
      <trkpt lat="47.468637" lon="7.959076">
        <ele>480.470668</ele>
        <time>2021-11-07T15:28:36.449Z</time>
      </trkpt>
      <trkpt lat="47.468641" lon="7.959158">
        <ele>479.867021</ele>
        <time>2021-11-07T15:28:36.942Z</time>
      </trkpt>
      <trkpt lat="47.468645" lon="7.959223">
        <ele>479.387787</ele>
        <time>2021-11-07T15:28:37.312Z</time>
      </trkpt>
      <trkpt lat="47.468655" lon="7.959428">
        <ele>477.878670</ele>
        <time>2021-11-07T15:28:38.501Z</time>
      </trkpt>
      <trkpt lat="47.468634" lon="7.959800">
        <ele>475.137768</ele>
        <time>2021-11-07T15:28:40.628Z</time>
      </trkpt>
      <trkpt lat="47.468516" lon="7.960416">
        <ele>470.436716</ele>
        <time>2021-11-07T15:28:44.329Z</time>
      </trkpt>
      <trkpt lat="47.468503" lon="7.960562">
        <ele>469.355455</ele>
        <time>2021-11-07T15:28:45.155Z</time>
      </trkpt>
      <trkpt lat="47.468498" lon="7.960883">
        <ele>466.997894</ele>
        <time>2021-11-07T15:28:47.031Z</time>
      </trkpt>
      <trkpt lat="47.468509" lon="7.961184">
        <ele>464.784581</ele>
        <time>2021-11-07T15:28:48.734Z</time>
      </trkpt>
      <trkpt lat="47.468616" lon="7.962000">
        <ele>460.078192</ele>
        <time>2021-11-07T15:28:53.666Z</time>
      </trkpt>
      <trkpt lat="47.469373" lon="7.963006">
        <ele>452.771342</ele>
        <time>2021-11-07T15:29:02.741Z</time>
      </trkpt>
      <trkpt lat="47.469749" lon="7.963424">
        <ele>449.629107</ele>
        <time>2021-11-07T15:29:07.205Z</time>
      </trkpt>
      <trkpt lat="47.470318" lon="7.964176">
        <ele>446.759859</ele>
        <time>2021-11-07T15:29:14.668Z</time>
      </trkpt>
      <trkpt lat="47.470351" lon="7.964220">
        <ele>446.592797</ele>
        <time>2021-11-07T15:29:15.084Z</time>
      </trkpt>
      <trkpt lat="47.470610" lon="7.964511">
        <ele>445.369769</ele>
        <time>2021-11-07T15:29:18.341Z</time>
      </trkpt>
      <trkpt lat="47.471250" lon="7.965231">
        <ele>442.369553</ele>
        <time>2021-11-07T15:29:26.732Z</time>
      </trkpt>
      <trkpt lat="47.471503" lon="7.965463">
        <ele>441.283819</ele>
        <time>2021-11-07T15:29:29.710Z</time>
      </trkpt>
      <trkpt lat="47.471880" lon="7.965766">
        <ele>439.718863</ele>
        <time>2021-11-07T15:29:33.992Z</time>
      </trkpt>
      <trkpt lat="47.472564" lon="7.966330">
        <ele>436.862583</ele>
        <time>2021-11-07T15:29:41.727Z</time>
      </trkpt>
      <trkpt lat="47.472594" lon="7.966357">
        <ele>436.734499</ele>
        <time>2021-11-07T15:29:42.034Z</time>
      </trkpt>
      <trkpt lat="47.472859" lon="7.966644">
        <ele>435.328283</ele>
        <time>2021-11-07T15:29:45.182Z</time>
      </trkpt>
      <trkpt lat="47.473444" lon="7.967380">
        <ele>431.958837</ele>
        <time>2021-11-07T15:29:52.455Z</time>
      </trkpt>
      <trkpt lat="47.473664" lon="7.967490">
        <ele>430.939908</ele>
        <time>2021-11-07T15:29:54.714Z</time>
      </trkpt>
      <trkpt lat="47.474076" lon="7.967608">
        <ele>429.098618</ele>
        <time>2021-11-07T15:29:58.678Z</time>
      </trkpt>
      <trkpt lat="47.474238" lon="7.967666">
        <ele>428.541320</ele>
        <time>2021-11-07T15:30:00.323Z</time>
      </trkpt>
      <trkpt lat="47.474560" lon="7.967748">
        <ele>427.928660</ele>
        <time>2021-11-07T15:30:03.619Z</time>
      </trkpt>
      <trkpt lat="47.475217" lon="7.967697">
        <ele>426.695029</ele>
        <time>2021-11-07T15:30:10.904Z</time>
      </trkpt>
      <trkpt lat="47.475280" lon="7.967711">
        <ele>426.575573</ele>
        <time>2021-11-07T15:30:11.607Z</time>
      </trkpt>
      <trkpt lat="47.475359" lon="7.967770">
        <ele>426.409637</ele>
        <time>2021-11-07T15:30:12.641Z</time>
      </trkpt>
      <trkpt lat="47.475436" lon="7.967868">
        <ele>426.219183</ele>
        <time>2021-11-07T15:30:13.980Z</time>
      </trkpt>
      <trkpt lat="47.475607" lon="7.968209">
        <ele>425.681048</ele>
        <time>2021-11-07T15:30:17.758Z</time>
      </trkpt>
      <trkpt lat="47.475616" lon="7.968229">
        <ele>425.650596</ele>
        <time>2021-11-07T15:30:18.044Z</time>
      </trkpt>
      <trkpt lat="47.475684" lon="7.968334">
        <ele>425.466295</ele>
        <time>2021-11-07T15:30:19.705Z</time>
      </trkpt>
      <trkpt lat="47.475729" lon="7.968403">
        <ele>425.344775</ele>
        <time>2021-11-07T15:30:20.747Z</time>
      </trkpt>
      <trkpt lat="47.475871" lon="7.968576">
        <ele>425.270172</ele>
        <time>2021-11-07T15:30:23.133Z</time>
      </trkpt>
      <trkpt lat="47.476103" lon="7.968806">
        <ele>425.220398</ele>
        <time>2021-11-07T15:30:26.890Z</time>
      </trkpt>
      <trkpt lat="47.476327" lon="7.969094">
        <ele>425.167506</ele>
        <time>2021-11-07T15:30:30.908Z</time>
      </trkpt>
      <trkpt lat="47.476396" lon="7.969182">
        <ele>425.151269</ele>
        <time>2021-11-07T15:30:32.122Z</time>
      </trkpt>
      <trkpt lat="47.476670" lon="7.969631">
        <ele>425.078396</ele>
        <time>2021-11-07T15:30:38.453Z</time>
      </trkpt>
      <trkpt lat="47.476944" lon="7.970103">
        <ele>425.003444</ele>
        <time>2021-11-07T15:30:45.383Z</time>
      </trkpt>
      <trkpt lat="47.477029" lon="7.970212">
        <ele>424.983396</ele>
        <time>2021-11-07T15:30:46.861Z</time>
      </trkpt>
      <trkpt lat="47.477135" lon="7.970342">
        <ele>424.759349</ele>
        <time>2021-11-07T15:30:49.285Z</time>
      </trkpt>
      <trkpt lat="47.477203" lon="7.970445">
        <ele>424.561156</ele>
        <time>2021-11-07T15:30:50.551Z</time>
      </trkpt>
      <trkpt lat="47.477262" lon="7.970548">
        <ele>424.375307</ele>
        <time>2021-11-07T15:30:51.631Z</time>
      </trkpt>
      <trkpt lat="47.477284" lon="7.970600">
        <ele>424.290863</ele>
        <time>2021-11-07T15:30:52.129Z</time>
      </trkpt>
      <trkpt lat="47.477322" lon="7.970682">
        <ele>424.154007</ele>
        <time>2021-11-07T15:30:53.183Z</time>
      </trkpt>
      <trkpt lat="47.477370" lon="7.970827">
        <ele>423.931761</ele>
        <time>2021-11-07T15:30:54.495Z</time>
      </trkpt>
      <trkpt lat="47.477522" lon="7.971381">
        <ele>423.108747</ele>
        <time>2021-11-07T15:30:59.156Z</time>
      </trkpt>
      <trkpt lat="47.477553" lon="7.971461">
        <ele>422.981813</ele>
        <time>2021-11-07T15:30:59.756Z</time>
      </trkpt>
      <trkpt lat="47.477623" lon="7.971640">
        <ele>422.697151</ele>
        <time>2021-11-07T15:31:01.207Z</time>
      </trkpt>
      <trkpt lat="47.477698" lon="7.971759">
        <ele>422.473182</ele>
        <time>2021-11-07T15:31:02.490Z</time>
      </trkpt>
      <trkpt lat="47.477778" lon="7.971876">
        <ele>422.244093</ele>
        <time>2021-11-07T15:31:03.580Z</time>
      </trkpt>
      <trkpt lat="47.478083" lon="7.972275">
        <ele>421.414950</ele>
        <time>2021-11-07T15:31:07.604Z</time>
      </trkpt>
      <trkpt lat="47.478198" lon="7.972475">
        <ele>420.779777</ele>
        <time>2021-11-07T15:31:09.506Z</time>
      </trkpt>
      <trkpt lat="47.478213" lon="7.972508">
        <ele>420.667710</ele>
        <time>2021-11-07T15:31:09.761Z</time>
      </trkpt>
      <trkpt lat="47.478295" lon="7.972689">
        <ele>420.053670</ele>
        <time>2021-11-07T15:31:11.154Z</time>
      </trkpt>
      <trkpt lat="47.478424" lon="7.973015">
        <ele>418.989143</ele>
        <time>2021-11-07T15:31:13.729Z</time>
      </trkpt>
      <trkpt lat="47.478494" lon="7.973191">
        <ele>418.413678</ele>
        <time>2021-11-07T15:31:14.995Z</time>
      </trkpt>
      <trkpt lat="47.478606" lon="7.973396">
        <ele>417.670859</ele>
        <time>2021-11-07T15:31:16.818Z</time>
      </trkpt>
      <trkpt lat="47.478952" lon="7.973850">
        <ele>415.742681</ele>
        <time>2021-11-07T15:31:21.216Z</time>
      </trkpt>
      <trkpt lat="47.479061" lon="7.974014">
        <ele>415.094520</ele>
        <time>2021-11-07T15:31:22.719Z</time>
      </trkpt>
      <trkpt lat="47.479095" lon="7.974066">
        <ele>414.890639</ele>
        <time>2021-11-07T15:31:23.233Z</time>
      </trkpt>
      <trkpt lat="47.479172" lon="7.974215">
        <ele>414.362092</ele>
        <time>2021-11-07T15:31:24.446Z</time>
      </trkpt>
      <trkpt lat="47.479198" lon="7.974266">
        <ele>414.182077</ele>
        <time>2021-11-07T15:31:24.831Z</time>
      </trkpt>
      <trkpt lat="47.479256" lon="7.974388">
        <ele>413.770604</ele>
        <time>2021-11-07T15:31:25.777Z</time>
      </trkpt>
      <trkpt lat="47.479521" lon="7.975122">
        <ele>411.810805</ele>
        <time>2021-11-07T15:31:31.195Z</time>
      </trkpt>
      <trkpt lat="47.479548" lon="7.975187">
        <ele>411.631125</ele>
        <time>2021-11-07T15:31:31.674Z</time>
      </trkpt>
      <trkpt lat="47.479650" lon="7.975428">
        <ele>410.961452</ele>
        <time>2021-11-07T15:31:33.568Z</time>
      </trkpt>
      <trkpt lat="47.479662" lon="7.975458">
        <ele>410.879354</ele>
        <time>2021-11-07T15:31:33.812Z</time>
      </trkpt>
      <trkpt lat="47.479744" lon="7.975611">
        <ele>410.419488</ele>
        <time>2021-11-07T15:31:35.114Z</time>
      </trkpt>
      <trkpt lat="47.480019" lon="7.976061">
        <ele>408.990723</ele>
        <time>2021-11-07T15:31:39.391Z</time>
      </trkpt>
      <trkpt lat="47.480172" lon="7.976321">
        <ele>408.178836</ele>
        <time>2021-11-07T15:31:41.895Z</time>
      </trkpt>
      <trkpt lat="47.480258" lon="7.976521">
        <ele>407.620580</ele>
        <time>2021-11-07T15:31:43.655Z</time>
      </trkpt>
      <trkpt lat="47.480294" lon="7.976615">
        <ele>407.427588</ele>
        <time>2021-11-07T15:31:44.375Z</time>
      </trkpt>
      <trkpt lat="47.480540" lon="7.977249">
        <ele>406.287314</ele>
        <time>2021-11-07T15:31:49.602Z</time>
      </trkpt>
      <trkpt lat="47.481057" lon="7.978315">
        <ele>404.240804</ele>
        <time>2021-11-07T15:31:59.080Z</time>
      </trkpt>
      <trkpt lat="47.481075" lon="7.978353">
        <ele>404.168425</ele>
        <time>2021-11-07T15:31:59.370Z</time>
      </trkpt>
      <trkpt lat="47.481331" lon="7.978796">
        <ele>403.298024</ele>
        <time>2021-11-07T15:32:03.698Z</time>
      </trkpt>
      <trkpt lat="47.481417" lon="7.978989">
        <ele>403.038788</ele>
        <time>2021-11-07T15:32:05.529Z</time>
      </trkpt>
      <trkpt lat="47.481508" lon="7.979190">
        <ele>402.767489</ele>
        <time>2021-11-07T15:32:07.318Z</time>
      </trkpt>
      <trkpt lat="47.481627" lon="7.979494">
        <ele>402.373534</ele>
        <time>2021-11-07T15:32:10.139Z</time>
      </trkpt>
      <trkpt lat="47.481673" lon="7.979611">
        <ele>402.221746</ele>
        <time>2021-11-07T15:32:11.172Z</time>
      </trkpt>
      <trkpt lat="47.481757" lon="7.979824">
        <ele>401.945200</ele>
        <time>2021-11-07T15:32:13.048Z</time>
      </trkpt>
      <trkpt lat="47.481977" lon="7.980334">
        <ele>401.266728</ele>
        <time>2021-11-07T15:32:17.720Z</time>
      </trkpt>
      <trkpt lat="47.482025" lon="7.980480">
        <ele>401.084663</ele>
        <time>2021-11-07T15:32:18.929Z</time>
      </trkpt>
      <trkpt lat="47.482099" lon="7.980698">
        <ele>400.811100</ele>
        <time>2021-11-07T15:32:20.847Z</time>
      </trkpt>
      <trkpt lat="47.482159" lon="7.980898">
        <ele>400.565722</ele>
        <time>2021-11-07T15:32:22.524Z</time>
      </trkpt>
      <trkpt lat="47.482458" lon="7.981897">
        <ele>399.540497</ele>
        <time>2021-11-07T15:32:31.052Z</time>
      </trkpt>
      <trkpt lat="47.482472" lon="7.981944">
        <ele>399.493643</ele>
        <time>2021-11-07T15:32:31.429Z</time>
      </trkpt>
      <trkpt lat="47.482563" lon="7.982231">
        <ele>399.204456</ele>
        <time>2021-11-07T15:32:34.097Z</time>
      </trkpt>
      <trkpt lat="47.482594" lon="7.982339">
        <ele>399.097420</ele>
        <time>2021-11-07T15:32:35.001Z</time>
      </trkpt>
      <trkpt lat="47.482652" lon="7.982524">
        <ele>398.911386</ele>
        <time>2021-11-07T15:32:36.619Z</time>
      </trkpt>
      <trkpt lat="47.482704" lon="7.982687">
        <ele>398.746962</ele>
        <time>2021-11-07T15:32:38.190Z</time>
      </trkpt>
      <trkpt lat="47.482729" lon="7.982770">
        <ele>398.664070</ele>
        <time>2021-11-07T15:32:38.878Z</time>
      </trkpt>
      <trkpt lat="47.482840" lon="7.983205">
        <ele>398.239916</ele>
        <time>2021-11-07T15:32:42.701Z</time>
      </trkpt>
      <trkpt lat="47.482897" lon="7.983529">
        <ele>397.922239</ele>
        <time>2021-11-07T15:32:45.316Z</time>
      </trkpt>
      <trkpt lat="47.483001" lon="7.984129">
        <ele>397.219396</ele>
        <time>2021-11-07T15:32:50.126Z</time>
      </trkpt>
      <trkpt lat="47.483130" lon="7.984873">
        <ele>396.347855</ele>
        <time>2021-11-07T15:32:55.886Z</time>
      </trkpt>
      <trkpt lat="47.483153" lon="7.984996">
        <ele>396.203047</ele>
        <time>2021-11-07T15:32:56.857Z</time>
      </trkpt>
      <trkpt lat="47.483173" lon="7.985106">
        <ele>396.073794</ele>
        <time>2021-11-07T15:32:57.738Z</time>
      </trkpt>
      <trkpt lat="47.483274" lon="7.985553">
        <ele>395.538998</ele>
        <time>2021-11-07T15:33:01.321Z</time>
      </trkpt>
      <trkpt lat="47.483382" lon="7.985915">
        <ele>395.090003</ele>
        <time>2021-11-07T15:33:04.360Z</time>
      </trkpt>
      <trkpt lat="47.483462" lon="7.986151">
        <ele>394.755186</ele>
        <time>2021-11-07T15:33:06.365Z</time>
      </trkpt>
      <trkpt lat="47.483550" lon="7.986378">
        <ele>394.398292</ele>
        <time>2021-11-07T15:33:08.335Z</time>
      </trkpt>
      <trkpt lat="47.483775" lon="7.986910">
        <ele>393.542401</ele>
        <time>2021-11-07T15:33:12.995Z</time>
      </trkpt>
      <trkpt lat="47.484569" lon="7.988582">
        <ele>390.901497</ele>
        <time>2021-11-07T15:33:27.896Z</time>
      </trkpt>
      <trkpt lat="47.485480" lon="7.990116">
        <ele>388.817736</ele>
        <time>2021-11-07T15:33:43.946Z</time>
      </trkpt>
      <trkpt lat="47.485638" lon="7.990371">
        <ele>388.549820</ele>
        <time>2021-11-07T15:33:46.789Z</time>
      </trkpt>
      <trkpt lat="47.485781" lon="7.990604">
        <ele>388.405252</ele>
        <time>2021-11-07T15:33:49.382Z</time>
      </trkpt>
      <trkpt lat="47.486196" lon="7.991276">
        <ele>387.987126</ele>
        <time>2021-11-07T15:33:57.191Z</time>
      </trkpt>
      <trkpt lat="47.486319" lon="7.991471">
        <ele>387.864608</ele>
        <time>2021-11-07T15:33:59.562Z</time>
      </trkpt>
      <trkpt lat="47.487177" lon="7.992841">
        <ele>386.774804</ele>
        <time>2021-11-07T15:34:16.662Z</time>
      </trkpt>
      <trkpt lat="47.487787" lon="7.993572">
        <ele>385.924339</ele>
        <time>2021-11-07T15:34:25.932Z</time>
      </trkpt>
      <trkpt lat="47.488341" lon="7.994090">
        <ele>385.086519</ele>
        <time>2021-11-07T15:34:33.422Z</time>
      </trkpt>
      <trkpt lat="47.488382" lon="7.994128">
        <ele>385.005460</ele>
        <time>2021-11-07T15:34:33.956Z</time>
      </trkpt>
      <trkpt lat="47.488991" lon="7.994692">
        <ele>383.801698</ele>
        <time>2021-11-07T15:34:42.118Z</time>
      </trkpt>
      <trkpt lat="47.489245" lon="7.994928">
        <ele>383.299175</ele>
        <time>2021-11-07T15:34:45.546Z</time>
      </trkpt>
      <trkpt lat="47.490016" lon="7.995686">
        <ele>381.607711</ele>
        <time>2021-11-07T15:34:55.831Z</time>
      </trkpt>
      <trkpt lat="47.490899" lon="7.996664">
        <ele>379.381294</ele>
        <time>2021-11-07T15:35:07.969Z</time>
      </trkpt>
      <trkpt lat="47.490940" lon="7.996698">
        <ele>379.286421</ele>
        <time>2021-11-07T15:35:08.487Z</time>
      </trkpt>
      <trkpt lat="47.491068" lon="7.996814">
        <ele>378.983433</ele>
        <time>2021-11-07T15:35:10.055Z</time>
      </trkpt>
      <trkpt lat="47.491354" lon="7.997016">
        <ele>378.312014</ele>
        <time>2021-11-07T15:35:13.493Z</time>
      </trkpt>
      <trkpt lat="47.491886" lon="7.997365">
        <ele>377.056320</ele>
        <time>2021-11-07T15:35:19.742Z</time>
      </trkpt>
      <trkpt lat="47.492317" lon="7.997637">
        <ele>376.045266</ele>
        <time>2021-11-07T15:35:24.676Z</time>
      </trkpt>
      <trkpt lat="47.492477" lon="7.997747">
        <ele>375.664578</ele>
        <time>2021-11-07T15:35:26.600Z</time>
      </trkpt>
      <trkpt lat="47.492617" lon="7.997908">
        <ele>375.282000</ele>
        <time>2021-11-07T15:35:28.541Z</time>
      </trkpt>
      <trkpt lat="47.492722" lon="7.998050">
        <ele>374.975080</ele>
        <time>2021-11-07T15:35:30.199Z</time>
      </trkpt>
      <trkpt lat="47.492747" lon="7.998084">
        <ele>374.913428</ele>
        <time>2021-11-07T15:35:30.583Z</time>
      </trkpt>
      <trkpt lat="47.492877" lon="7.998257">
        <ele>374.749445</ele>
        <time>2021-11-07T15:35:32.504Z</time>
      </trkpt>
      <trkpt lat="47.493144" lon="7.998645">
        <ele>374.398461</ele>
        <time>2021-11-07T15:35:36.861Z</time>
      </trkpt>
      <trkpt lat="47.493296" lon="7.998833">
        <ele>374.212655</ele>
        <time>2021-11-07T15:35:39.325Z</time>
      </trkpt>
      <trkpt lat="47.493358" lon="7.998911">
        <ele>374.136329</ele>
        <time>2021-11-07T15:35:40.285Z</time>
      </trkpt>
      <trkpt lat="47.493433" lon="7.998996">
        <ele>374.047723</ele>
        <time>2021-11-07T15:35:41.485Z</time>
      </trkpt>
      <trkpt lat="47.493502" lon="7.999071">
        <ele>373.967423</ele>
        <time>2021-11-07T15:35:42.602Z</time>
      </trkpt>
      <trkpt lat="47.493603" lon="7.999152">
        <ele>373.859672</ele>
        <time>2021-11-07T15:35:44.042Z</time>
      </trkpt>
      <trkpt lat="47.493742" lon="7.999216">
        <ele>373.723129</ele>
        <time>2021-11-07T15:35:45.886Z</time>
      </trkpt>
      <trkpt lat="47.493937" lon="7.999285">
        <ele>373.535068</ele>
        <time>2021-11-07T15:35:48.519Z</time>
      </trkpt>
      <trkpt lat="47.493961" lon="7.999292">
        <ele>373.512123</ele>
        <time>2021-11-07T15:35:48.824Z</time>
      </trkpt>
      <trkpt lat="47.494272" lon="7.999381">
        <ele>373.227170</ele>
        <time>2021-11-07T15:35:53.257Z</time>
      </trkpt>
      <trkpt lat="47.494489" lon="7.999417">
        <ele>373.145330</ele>
        <time>2021-11-07T15:35:56.595Z</time>
      </trkpt>
      <trkpt lat="47.494643" lon="7.999430">
        <ele>373.087518</ele>
        <time>2021-11-07T15:35:58.945Z</time>
      </trkpt>
      <trkpt lat="47.494812" lon="7.999457">
        <ele>373.023810</ele>
        <time>2021-11-07T15:36:01.436Z</time>
      </trkpt>
      <trkpt lat="47.495197" lon="7.999589">
        <ele>372.875693</ele>
        <time>2021-11-07T15:36:06.981Z</time>
      </trkpt>
      <trkpt lat="47.495430" lon="7.999752">
        <ele>372.779102</ele>
        <time>2021-11-07T15:36:10.478Z</time>
      </trkpt>
      <trkpt lat="47.495718" lon="8.000005">
        <ele>372.653581</ele>
        <time>2021-11-07T15:36:14.897Z</time>
      </trkpt>
      <trkpt lat="47.496011" lon="8.000286">
        <ele>372.417809</ele>
        <time>2021-11-07T15:36:19.359Z</time>
      </trkpt>
      <trkpt lat="47.496234" lon="8.000584">
        <ele>371.997662</ele>
        <time>2021-11-07T15:36:23.025Z</time>
      </trkpt>
      <trkpt lat="47.496272" lon="8.000651">
        <ele>371.915011</ele>
        <time>2021-11-07T15:36:23.877Z</time>
      </trkpt>
      <trkpt lat="47.496280" lon="8.000664">
        <ele>371.898397</ele>
        <time>2021-11-07T15:36:24.012Z</time>
      </trkpt>
      <trkpt lat="47.496429" lon="8.000925">
        <ele>371.575556</ele>
        <time>2021-11-07T15:36:26.683Z</time>
      </trkpt>
      <trkpt lat="47.496517" lon="8.001077">
        <ele>371.386430</ele>
        <time>2021-11-07T15:36:28.390Z</time>
      </trkpt>
      <trkpt lat="47.496533" lon="8.001104">
        <ele>371.352497</ele>
        <time>2021-11-07T15:36:28.642Z</time>
      </trkpt>
      <trkpt lat="47.496535" lon="8.001108">
        <ele>371.347796</ele>
        <time>2021-11-07T15:36:28.682Z</time>
      </trkpt>
      <trkpt lat="47.496585" lon="8.001187">
        <ele>371.245521</ele>
        <time>2021-11-07T15:36:29.479Z</time>
      </trkpt>
      <trkpt lat="47.496820" lon="8.001547">
        <ele>370.772564</ele>
        <time>2021-11-07T15:36:33.372Z</time>
      </trkpt>
      <trkpt lat="47.496861" lon="8.001608">
        <ele>370.691269</ele>
        <time>2021-11-07T15:36:34.005Z</time>
      </trkpt>
      <trkpt lat="47.496908" lon="8.001680">
        <ele>370.596678</ele>
        <time>2021-11-07T15:36:34.769Z</time>
      </trkpt>
      <trkpt lat="47.496932" lon="8.001715">
        <ele>370.549562</ele>
        <time>2021-11-07T15:36:35.135Z</time>
      </trkpt>
      <trkpt lat="47.497207" lon="8.002132">
        <ele>369.983620</ele>
        <time>2021-11-07T15:36:39.435Z</time>
      </trkpt>
      <trkpt lat="47.497264" lon="8.002219">
        <ele>369.831554</ele>
        <time>2021-11-07T15:36:40.377Z</time>
      </trkpt>
      <trkpt lat="47.497307" lon="8.002279">
        <ele>369.721800</ele>
        <time>2021-11-07T15:36:41.010Z</time>
      </trkpt>
      <trkpt lat="47.497390" lon="8.002409">
        <ele>369.497366</ele>
        <time>2021-11-07T15:36:42.372Z</time>
      </trkpt>
      <trkpt lat="47.497540" lon="8.002634">
        <ele>369.100733</ele>
        <time>2021-11-07T15:36:44.772Z</time>
      </trkpt>
      <trkpt lat="47.497607" lon="8.002710">
        <ele>368.943960</ele>
        <time>2021-11-07T15:36:45.690Z</time>
      </trkpt>
      <trkpt lat="47.497951" lon="8.003094">
        <ele>368.143748</ele>
        <time>2021-11-07T15:36:50.562Z</time>
      </trkpt>
      <trkpt lat="47.498072" lon="8.003250">
        <ele>367.845726</ele>
        <time>2021-11-07T15:36:52.293Z</time>
      </trkpt>
      <trkpt lat="47.498166" lon="8.003383">
        <ele>367.604214</ele>
        <time>2021-11-07T15:36:53.772Z</time>
      </trkpt>
      <trkpt lat="47.498213" lon="8.003454">
        <ele>367.479490</ele>
        <time>2021-11-07T15:36:54.539Z</time>
      </trkpt>
      <trkpt lat="47.498450" lon="8.003874">
        <ele>366.792851</ele>
        <time>2021-11-07T15:36:58.627Z</time>
      </trkpt>
      <trkpt lat="47.498698" lon="8.004313">
        <ele>366.229133</ele>
        <time>2021-11-07T15:37:02.869Z</time>
      </trkpt>
      <trkpt lat="47.498753" lon="8.004410">
        <ele>366.109122</ele>
        <time>2021-11-07T15:37:03.779Z</time>
      </trkpt>
      <trkpt lat="47.498898" lon="8.004636">
        <ele>365.813753</ele>
        <time>2021-11-07T15:37:06.272Z</time>
      </trkpt>
      <trkpt lat="47.498965" lon="8.004710">
        <ele>365.696489</ele>
        <time>2021-11-07T15:37:07.214Z</time>
      </trkpt>
      <trkpt lat="47.499012" lon="8.004762">
        <ele>365.614178</ele>
        <time>2021-11-07T15:37:07.866Z</time>
      </trkpt>
      <trkpt lat="47.499183" lon="8.004875">
        <ele>365.351491</ele>
        <time>2021-11-07T15:37:10.143Z</time>
      </trkpt>
      <trkpt lat="47.499409" lon="8.005000">
        <ele>365.013063</ele>
        <time>2021-11-07T15:37:12.992Z</time>
      </trkpt>
      <trkpt lat="47.499496" lon="8.005059">
        <ele>364.878826</ele>
        <time>2021-11-07T15:37:14.162Z</time>
      </trkpt>
      <trkpt lat="47.499523" lon="8.005078">
        <ele>364.836890</ele>
        <time>2021-11-07T15:37:14.504Z</time>
      </trkpt>
      <trkpt lat="47.499770" lon="8.005268">
        <ele>364.446420</ele>
        <time>2021-11-07T15:37:17.827Z</time>
      </trkpt>
      <trkpt lat="47.499856" lon="8.005338">
        <ele>364.308749</ele>
        <time>2021-11-07T15:37:18.989Z</time>
      </trkpt>
      <trkpt lat="47.499880" lon="8.005358">
        <ele>364.270114</ele>
        <time>2021-11-07T15:37:19.303Z</time>
      </trkpt>
      <trkpt lat="47.499991" lon="8.005468">
        <ele>364.140331</ele>
        <time>2021-11-07T15:37:20.878Z</time>
      </trkpt>
      <trkpt lat="47.500009" lon="8.005488">
        <ele>364.127007</ele>
        <time>2021-11-07T15:37:21.169Z</time>
      </trkpt>
      <trkpt lat="47.500207" lon="8.005727">
        <ele>363.975763</ele>
        <time>2021-11-07T15:37:24.330Z</time>
      </trkpt>
      <trkpt lat="47.500252" lon="8.005784">
        <ele>363.940702</ele>
        <time>2021-11-07T15:37:25.115Z</time>
      </trkpt>
      <trkpt lat="47.500310" lon="8.005852">
        <ele>363.896902</ele>
        <time>2021-11-07T15:37:26.043Z</time>
      </trkpt>
      <trkpt lat="47.500540" lon="8.006079">
        <ele>363.733257</ele>
        <time>2021-11-07T15:37:29.609Z</time>
      </trkpt>
      <trkpt lat="47.500647" lon="8.006180">
        <ele>363.658132</ele>
        <time>2021-11-07T15:37:31.316Z</time>
      </trkpt>
      <trkpt lat="47.500764" lon="8.006290">
        <ele>363.576081</ele>
        <time>2021-11-07T15:37:33.080Z</time>
      </trkpt>
      <trkpt lat="47.500997" lon="8.006551">
        <ele>363.403107</ele>
        <time>2021-11-07T15:37:37.198Z</time>
      </trkpt>
      <trkpt lat="47.501276" lon="8.006911">
        <ele>363.184004</ele>
        <time>2021-11-07T15:37:42.626Z</time>
      </trkpt>
      <trkpt lat="47.501293" lon="8.006936">
        <ele>363.169818</ele>
        <time>2021-11-07T15:37:42.951Z</time>
      </trkpt>
      <trkpt lat="47.501496" lon="8.007247">
        <ele>362.927004</ele>
        <time>2021-11-07T15:37:46.905Z</time>
      </trkpt>
      <trkpt lat="47.501537" lon="8.007308">
        <ele>362.872682</ele>
        <time>2021-11-07T15:37:47.649Z</time>
      </trkpt>
      <trkpt lat="47.501943" lon="8.008353">
        <ele>362.111657</ele>
        <time>2021-11-07T15:37:58.122Z</time>
      </trkpt>
      <trkpt lat="47.502062" lon="8.008650">
        <ele>361.893665</ele>
        <time>2021-11-07T15:38:01.062Z</time>
      </trkpt>
      <trkpt lat="47.502158" lon="8.008808">
        <ele>361.759513</ele>
        <time>2021-11-07T15:38:02.769Z</time>
      </trkpt>
      <trkpt lat="47.502267" lon="8.008979">
        <ele>361.611093</ele>
        <time>2021-11-07T15:38:04.601Z</time>
      </trkpt>
      <trkpt lat="47.502773" lon="8.009928">
        <ele>360.186486</ele>
        <time>2021-11-07T15:38:13.562Z</time>
      </trkpt>
      <trkpt lat="47.502959" lon="8.010415">
        <ele>359.436720</ele>
        <time>2021-11-07T15:38:17.630Z</time>
      </trkpt>
      <trkpt lat="47.503207" lon="8.011279">
        <ele>358.178600</ele>
        <time>2021-11-07T15:38:24.552Z</time>
      </trkpt>
      <trkpt lat="47.503268" lon="8.011479">
        <ele>357.884509</ele>
        <time>2021-11-07T15:38:26.228Z</time>
      </trkpt>
      <trkpt lat="47.503325" lon="8.011662">
        <ele>357.664508</ele>
        <time>2021-11-07T15:38:27.710Z</time>
      </trkpt>
      <trkpt lat="47.503561" lon="8.012433">
        <ele>356.753580</ele>
        <time>2021-11-07T15:38:33.982Z</time>
      </trkpt>
      <trkpt lat="47.503675" lon="8.012805">
        <ele>356.313980</ele>
        <time>2021-11-07T15:38:36.991Z</time>
      </trkpt>
      <trkpt lat="47.503759" lon="8.013139">
        <ele>355.930441</ele>
        <time>2021-11-07T15:38:39.701Z</time>
      </trkpt>
      <trkpt lat="47.503818" lon="8.013443">
        <ele>355.590054</ele>
        <time>2021-11-07T15:38:42.233Z</time>
      </trkpt>
      <trkpt lat="47.503854" lon="8.013721">
        <ele>355.285434</ele>
        <time>2021-11-07T15:38:44.639Z</time>
      </trkpt>
      <trkpt lat="47.503922" lon="8.014235">
        <ele>354.882016</ele>
        <time>2021-11-07T15:38:49.304Z</time>
      </trkpt>
      <trkpt lat="47.504106" lon="8.015484">
        <ele>354.289382</ele>
        <time>2021-11-07T15:39:00.110Z</time>
      </trkpt>
      <trkpt lat="47.504246" lon="8.016448">
        <ele>353.832270</ele>
        <time>2021-11-07T15:39:08.729Z</time>
      </trkpt>
      <trkpt lat="47.504281" lon="8.016674">
        <ele>353.768581</ele>
        <time>2021-11-07T15:39:10.774Z</time>
      </trkpt>
      <trkpt lat="47.504393" lon="8.017182">
        <ele>353.766481</ele>
        <time>2021-11-07T15:39:16.099Z</time>
      </trkpt>
      <trkpt lat="47.504413" lon="8.017267">
        <ele>353.766128</ele>
        <time>2021-11-07T15:39:17.095Z</time>
      </trkpt>
      <trkpt lat="47.504588" lon="8.017986">
        <ele>353.763125</ele>
        <time>2021-11-07T15:39:25.141Z</time>
      </trkpt>
      <trkpt lat="47.504626" lon="8.018141">
        <ele>353.762478</ele>
        <time>2021-11-07T15:39:26.772Z</time>
      </trkpt>
      <trkpt lat="47.504819" lon="8.018974">
        <ele>353.759018</ele>
        <time>2021-11-07T15:39:35.573Z</time>
      </trkpt>
      <trkpt lat="47.504877" lon="8.019222">
        <ele>353.697673</ele>
        <time>2021-11-07T15:39:38.418Z</time>
      </trkpt>
      <trkpt lat="47.504998" lon="8.019743">
        <ele>353.438557</ele>
        <time>2021-11-07T15:39:44.404Z</time>
      </trkpt>
      <trkpt lat="47.505207" lon="8.020615">
        <ele>353.003386</ele>
        <time>2021-11-07T15:39:52.814Z</time>
      </trkpt>
      <trkpt lat="47.505291" lon="8.020961">
        <ele>352.830465</ele>
        <time>2021-11-07T15:39:55.887Z</time>
      </trkpt>
      <trkpt lat="47.505529" lon="8.021539">
        <ele>352.512098</ele>
        <time>2021-11-07T15:40:01.113Z</time>
      </trkpt>
      <trkpt lat="47.505600" lon="8.021664">
        <ele>352.257196</ele>
        <time>2021-11-07T15:40:02.254Z</time>
      </trkpt>
      <trkpt lat="47.505600" lon="8.021664">
        <ele>352.257196</ele>
        <time>2021-11-07T15:40:02.255Z</time>
      </trkpt>
      <trkpt lat="47.505653" lon="8.021731">
        <ele>352.086840</ele>
        <time>2021-11-07T15:40:03.074Z</time>
      </trkpt>
      <trkpt lat="47.506220" lon="8.022129">
        <ele>350.553010</ele>
        <time>2021-11-07T15:40:09.912Z</time>
      </trkpt>
      <trkpt lat="47.506503" lon="8.022393">
        <ele>349.735385</ele>
        <time>2021-11-07T15:40:13.513Z</time>
      </trkpt>
      <trkpt lat="47.506535" lon="8.022414">
        <ele>349.649826</ele>
        <time>2021-11-07T15:40:13.834Z</time>
      </trkpt>
      <trkpt lat="47.506621" lon="8.022234">
        <ele>349.285794</ele>
        <time>2021-11-07T15:40:15.414Z</time>
      </trkpt>
      <trkpt lat="47.506655" lon="8.022123">
        <ele>349.084556</ele>
        <time>2021-11-07T15:40:16.281Z</time>
      </trkpt>
      <trkpt lat="47.506678" lon="8.022015">
        <ele>348.897581</ele>
        <time>2021-11-07T15:40:17.083Z</time>
      </trkpt>
      <trkpt lat="47.506735" lon="8.021861">
        <ele>348.607638</ele>
        <time>2021-11-07T15:40:18.248Z</time>
      </trkpt>
      <trkpt lat="47.506867" lon="8.021604">
        <ele>348.073609</ele>
        <time>2021-11-07T15:40:20.479Z</time>
      </trkpt>
      <trkpt lat="47.506910" lon="8.021529">
        <ele>347.906776</ele>
        <time>2021-11-07T15:40:21.109Z</time>
      </trkpt>
      <trkpt lat="47.506949" lon="8.021459">
        <ele>347.752892</ele>
        <time>2021-11-07T15:40:21.752Z</time>
      </trkpt>
      <trkpt lat="47.507007" lon="8.021362">
        <ele>347.533197</ele>
        <time>2021-11-07T15:40:22.645Z</time>
      </trkpt>
      <trkpt lat="47.507213" lon="8.021061">
        <ele>346.806516</ele>
        <time>2021-11-07T15:40:25.597Z</time>
      </trkpt>
      <trkpt lat="47.507466" lon="8.020697">
        <ele>345.920774</ele>
        <time>2021-11-07T15:40:29.232Z</time>
      </trkpt>
      <trkpt lat="47.507609" lon="8.020484">
        <ele>345.411480</ele>
        <time>2021-11-07T15:40:31.373Z</time>
      </trkpt>
      <trkpt lat="47.507666" lon="8.020400">
        <ele>345.209557</ele>
        <time>2021-11-07T15:40:32.235Z</time>
      </trkpt>
      <trkpt lat="47.507863" lon="8.020075">
        <ele>344.469012</ele>
        <time>2021-11-07T15:40:35.429Z</time>
      </trkpt>
      <trkpt lat="47.507895" lon="8.020117">
        <ele>344.361644</ele>
        <time>2021-11-07T15:40:35.892Z</time>
      </trkpt>
      <trkpt lat="47.507995" lon="8.020296">
        <ele>343.967710</ele>
        <time>2021-11-07T15:40:37.673Z</time>
      </trkpt>
      <trkpt lat="47.508000" lon="8.020315">
        <ele>343.933129</ele>
        <time>2021-11-07T15:40:37.803Z</time>
      </trkpt>
      <trkpt lat="47.508039" lon="8.020467">
        <ele>343.657384</ele>
        <time>2021-11-07T15:40:39.007Z</time>
      </trkpt>
      <trkpt lat="47.508194" lon="8.021281">
        <ele>343.746279</ele>
        <time>2021-11-07T15:40:45.638Z</time>
      </trkpt>
      <trkpt lat="47.508213" lon="8.021364">
        <ele>343.762779</ele>
        <time>2021-11-07T15:40:46.371Z</time>
      </trkpt>
      <trkpt lat="47.508331" lon="8.021703">
        <ele>343.834578</ele>
        <time>2021-11-07T15:40:49.575Z</time>
      </trkpt>
      <trkpt lat="47.508453" lon="8.021990">
        <ele>343.898421</ele>
        <time>2021-11-07T15:40:53.042Z</time>
      </trkpt>
      <trkpt lat="47.508643" lon="8.022392">
        <ele>343.990792</ele>
        <time>2021-11-07T15:41:00.172Z</time>
      </trkpt>
      <trkpt lat="47.508786" lon="8.022604">
        <ele>344.047198</ele>
        <time>2021-11-07T15:41:05.156Z</time>
      </trkpt>
      <trkpt lat="47.508863" lon="8.022719">
        <ele>344.077684</ele>
        <time>2021-11-07T15:41:07.708Z</time>
      </trkpt>
      <trkpt lat="47.508958" lon="8.022838">
        <ele>344.372639</ele>
        <time>2021-11-07T15:41:10.410Z</time>
      </trkpt>
      <trkpt lat="47.508988" lon="8.022795">
        <ele>344.562779</ele>
        <time>2021-11-07T15:41:11.899Z</time>
      </trkpt>
      <trkpt lat="47.509062" lon="8.022723">
        <ele>344.965995</ele>
        <time>2021-11-07T15:41:15.074Z</time>
      </trkpt>
      <trkpt lat="47.509153" lon="8.022677">
        <ele>345.403852</ele>
        <time>2021-11-07T15:41:18.185Z</time>
      </trkpt>
      <trkpt lat="47.509062" lon="8.022723">
        <ele>345.841709</ele>
        <time>2021-11-07T15:41:21.128Z</time>
      </trkpt>
      <trkpt lat="47.508988" lon="8.022795">
        <ele>346.244925</ele>
        <time>2021-11-07T15:41:24.349Z</time>
      </trkpt>
      <trkpt lat="47.508958" lon="8.022838">
        <ele>346.435065</ele>
        <time>2021-11-07T15:41:25.866Z</time>
      </trkpt>
      <trkpt lat="47.509187" lon="8.023037">
        <ele>347.644182</ele>
        <time>2021-11-07T15:41:34.066Z</time>
      </trkpt>
      <trkpt lat="47.509313" lon="8.023129">
        <ele>348.283908</ele>
        <time>2021-11-07T15:41:39.241Z</time>
      </trkpt>
      <trkpt lat="47.509881" lon="8.023632">
        <ele>351.297689</ele>
        <time>2021-11-07T15:42:03.282Z</time>
      </trkpt>
      <trkpt lat="47.510365" lon="8.024216">
        <ele>354.303368</ele>
        <time>2021-11-07T15:42:27.970Z</time>
      </trkpt>
      <trkpt lat="47.510756" lon="8.024675">
        <ele>356.774611</ele>
        <time>2021-11-07T15:42:46.755Z</time>
      </trkpt>
      <trkpt lat="47.510843" lon="8.024760">
        <ele>357.290831</ele>
        <time>2021-11-07T15:42:50.770Z</time>
      </trkpt>
      <trkpt lat="47.511071" lon="8.024979">
        <ele>358.636798</ele>
        <time>2021-11-07T15:42:59.835Z</time>
      </trkpt>
      <trkpt lat="47.511906" lon="8.025487">
        <ele>362.527437</ele>
        <time>2021-11-07T15:43:26.176Z</time>
      </trkpt>
      <trkpt lat="47.512274" lon="8.025656">
        <ele>363.857370</ele>
        <time>2021-11-07T15:43:36.501Z</time>
      </trkpt>
      <trkpt lat="47.512538" lon="8.025758">
        <ele>364.799139</ele>
        <time>2021-11-07T15:43:43.640Z</time>
      </trkpt>
      <trkpt lat="47.512908" lon="8.025853">
        <ele>366.095333</ele>
        <time>2021-11-07T15:43:53.656Z</time>
      </trkpt>
      <trkpt lat="47.513218" lon="8.025897">
        <ele>367.170269</ele>
        <time>2021-11-07T15:44:02.417Z</time>
      </trkpt>
      <trkpt lat="47.513425" lon="8.025912">
        <ele>368.400188</ele>
        <time>2021-11-07T15:44:08.560Z</time>
      </trkpt>
      <trkpt lat="47.513701" lon="8.025904">
        <ele>370.365725</ele>
        <time>2021-11-07T15:44:27.755Z</time>
      </trkpt>
      <trkpt lat="47.514210" lon="8.025838">
        <ele>374.003751</ele>
        <time>2021-11-07T15:45:03.334Z</time>
      </trkpt>
      <trkpt lat="47.514465" lon="8.025897">
        <ele>375.841424</ele>
        <time>2021-11-07T15:45:21.274Z</time>
      </trkpt>
      <trkpt lat="47.514595" lon="8.026008">
        <ele>376.909932</ele>
        <time>2021-11-07T15:45:31.785Z</time>
      </trkpt>
      <trkpt lat="47.514817" lon="8.026467">
        <ele>379.624843</ele>
        <time>2021-11-07T15:45:58.330Z</time>
      </trkpt>
      <trkpt lat="47.514885" lon="8.026707">
        <ele>381.121301</ele>
        <time>2021-11-07T15:46:10.644Z</time>
      </trkpt>
      <trkpt lat="47.514979" lon="8.027036">
        <ele>383.468571</ele>
        <time>2021-11-07T15:46:27.481Z</time>
      </trkpt>
      <trkpt lat="47.515004" lon="8.027124">
        <ele>384.095871</ele>
        <time>2021-11-07T15:46:31.983Z</time>
      </trkpt>
      <trkpt lat="47.515321" lon="8.028237">
        <ele>392.032820</ele>
        <time>2021-11-07T15:47:28.883Z</time>
      </trkpt>
      <trkpt lat="47.515362" lon="8.028427">
        <ele>393.343437</ele>
        <time>2021-11-07T15:47:38.279Z</time>
      </trkpt>
      <trkpt lat="47.515362" lon="8.028427">
        <ele>393.343437</ele>
        <time>2021-11-07T15:47:38.310Z</time>
      </trkpt>
      <trkpt lat="47.515362" lon="8.028427">
        <ele>393.343437</ele>
        <time>2021-11-07T15:47:38.310Z</time>
      </trkpt>
      <trkpt lat="47.515641" lon="8.029599">
        <ele>401.383018</ele>
        <time>2021-11-07T15:47:53.925Z</time>
      </trkpt>
      <trkpt lat="47.515921" lon="8.030771">
        <ele>409.281466</ele>
        <time>2021-11-07T15:48:09.535Z</time>
      </trkpt>
      <trkpt lat="47.516200" lon="8.031943">
        <ele>417.077701</ele>
        <time>2021-11-07T15:48:25.150Z</time>
      </trkpt>
      <trkpt lat="47.516479" lon="8.033114">
        <ele>424.660508</ele>
        <time>2021-11-07T15:48:40.750Z</time>
      </trkpt>
      <trkpt lat="47.516758" lon="8.034286">
        <ele>431.775748</ele>
        <time>2021-11-07T15:48:56.349Z</time>
      </trkpt>
      <trkpt lat="47.516785" lon="8.034519">
        <ele>432.716682</ele>
        <time>2021-11-07T15:49:07.476Z</time>
      </trkpt>
      <trkpt lat="47.516756" lon="8.034742">
        <ele>433.620567</ele>
        <time>2021-11-07T15:49:18.156Z</time>
      </trkpt>
      <trkpt lat="47.516470" lon="8.035519">
        <ele>437.142654</ele>
        <time>2021-11-07T15:49:59.720Z</time>
      </trkpt>
      <trkpt lat="47.516415" lon="8.035902">
        <ele>438.701152</ele>
        <time>2021-11-07T15:50:18.139Z</time>
      </trkpt>
      <trkpt lat="47.516430" lon="8.036102">
        <ele>439.502088</ele>
        <time>2021-11-07T15:50:27.589Z</time>
      </trkpt>
      <trkpt lat="47.516512" lon="8.036332">
        <ele>440.537257</ele>
        <time>2021-11-07T15:50:39.780Z</time>
      </trkpt>
      <trkpt lat="47.516645" lon="8.036512">
        <ele>441.575622</ele>
        <time>2021-11-07T15:50:52.311Z</time>
      </trkpt>
      <trkpt lat="47.516778" lon="8.036607">
        <ele>442.258586</ele>
        <time>2021-11-07T15:51:02.571Z</time>
      </trkpt>
      <trkpt lat="47.516942" lon="8.036650">
        <ele>443.028890</ele>
        <time>2021-11-07T15:51:14.145Z</time>
      </trkpt>
      <trkpt lat="47.517234" lon="8.036656">
        <ele>444.379526</ele>
        <time>2021-11-07T15:51:34.461Z</time>
      </trkpt>
      <trkpt lat="47.517610" lon="8.036660">
        <ele>446.118579</ele>
        <time>2021-11-07T15:52:00.643Z</time>
      </trkpt>
      <trkpt lat="47.517767" lon="8.036682">
        <ele>446.847952</ele>
        <time>2021-11-07T15:52:11.616Z</time>
      </trkpt>
      <trkpt lat="47.517867" lon="8.036710">
        <ele>447.318651</ele>
        <time>2021-11-07T15:52:18.684Z</time>
      </trkpt>
      <trkpt lat="47.518081" lon="8.036770">
        <ele>448.325993</ele>
        <time>2021-11-07T15:52:33.817Z</time>
      </trkpt>
      <trkpt lat="47.518539" lon="8.036930">
        <ele>450.712644</ele>
        <time>2021-11-07T15:53:06.549Z</time>
      </trkpt>
      <trkpt lat="47.519072" lon="8.036945">
        <ele>453.925285</ele>
        <time>2021-11-07T15:53:43.695Z</time>
      </trkpt>
      <trkpt lat="47.519987" lon="8.036532">
        <ele>459.689917</ele>
        <time>2021-11-07T15:54:50.264Z</time>
      </trkpt>
      <trkpt lat="47.520056" lon="8.036498">
        <ele>460.128156</ele>
        <time>2021-11-07T15:54:55.301Z</time>
      </trkpt>
      <trkpt lat="47.520194" lon="8.036435">
        <ele>460.927281</ele>
        <time>2021-11-07T15:55:05.393Z</time>
      </trkpt>
      <trkpt lat="47.520340" lon="8.036369">
        <ele>461.660528</ele>
        <time>2021-11-07T15:55:15.969Z</time>
      </trkpt>
      <trkpt lat="47.520393" lon="8.036350">
        <ele>461.922462</ele>
        <time>2021-11-07T15:55:19.835Z</time>
      </trkpt>
      <trkpt lat="47.520916" lon="8.036204">
        <ele>464.478886</ele>
        <time>2021-11-07T15:55:56.863Z</time>
      </trkpt>
      <trkpt lat="47.521258" lon="8.036231">
        <ele>466.123977</ele>
        <time>2021-11-07T15:56:20.685Z</time>
      </trkpt>
      <trkpt lat="47.521381" lon="8.036270">
        <ele>466.728186</ele>
        <time>2021-11-07T15:56:29.452Z</time>
      </trkpt>
      <trkpt lat="47.521466" lon="8.036296">
        <ele>467.145094</ele>
        <time>2021-11-07T15:56:35.467Z</time>
      </trkpt>
      <trkpt lat="47.521951" lon="8.036491">
        <ele>469.234428</ele>
        <time>2021-11-07T15:57:10.448Z</time>
      </trkpt>
      <trkpt lat="47.522589" lon="8.036591">
        <ele>468.632989</ele>
        <time>2021-11-07T15:57:55.007Z</time>
      </trkpt>
      <trkpt lat="47.522729" lon="8.036577">
        <ele>468.501446</ele>
        <time>2021-11-07T15:58:04.777Z</time>
      </trkpt>
      <trkpt lat="47.522908" lon="8.036517">
        <ele>468.329395</ele>
        <time>2021-11-07T15:58:17.509Z</time>
      </trkpt>
      <trkpt lat="47.523897" lon="8.036063">
        <ele>467.372621</ele>
        <time>2021-11-07T15:59:29.541Z</time>
      </trkpt>
      <trkpt lat="47.524622" lon="8.035732">
        <ele>466.702142</ele>
        <time>2021-11-07T16:00:22.245Z</time>
      </trkpt>
      <trkpt lat="47.524948" lon="8.035593">
        <ele>466.402336</ele>
        <time>2021-11-07T16:00:45.814Z</time>
      </trkpt>
      <trkpt lat="47.525143" lon="8.035534">
        <ele>466.226444</ele>
        <time>2021-11-07T16:00:59.637Z</time>
      </trkpt>
      <trkpt lat="47.525199" lon="8.035517">
        <ele>466.175925</ele>
        <time>2021-11-07T16:01:03.615Z</time>
      </trkpt>
      <trkpt lat="47.525448" lon="8.035439">
        <ele>466.057572</ele>
        <time>2021-11-07T16:01:21.316Z</time>
      </trkpt>
      <trkpt lat="47.526022" lon="8.035374">
        <ele>466.441513</ele>
        <time>2021-11-07T16:02:01.294Z</time>
      </trkpt>
      <trkpt lat="47.526771" lon="8.035396">
        <ele>466.941149</ele>
        <time>2021-11-07T16:02:53.365Z</time>
      </trkpt>
      <trkpt lat="47.527673" lon="8.035416">
        <ele>465.513111</ele>
        <time>2021-11-07T16:03:56.099Z</time>
      </trkpt>
      <trkpt lat="47.527719" lon="8.035419">
        <ele>465.355781</ele>
        <time>2021-11-07T16:03:59.312Z</time>
      </trkpt>
      <trkpt lat="47.528255" lon="8.035425">
        <ele>463.524276</ele>
        <time>2021-11-07T16:04:36.566Z</time>
      </trkpt>
      <trkpt lat="47.528330" lon="8.035426">
        <ele>463.267999</ele>
        <time>2021-11-07T16:04:41.776Z</time>
      </trkpt>
      <trkpt lat="47.528499" lon="8.035463">
        <ele>462.684269</ele>
        <time>2021-11-07T16:04:53.648Z</time>
      </trkpt>
      <trkpt lat="47.528632" lon="8.035511">
        <ele>462.216523</ele>
        <time>2021-11-07T16:05:03.185Z</time>
      </trkpt>
      <trkpt lat="47.528685" lon="8.035551">
        <ele>462.013269</ele>
        <time>2021-11-07T16:05:07.380Z</time>
      </trkpt>
      <trkpt lat="47.529415" lon="8.036548">
        <ele>458.941616</ele>
        <time>2021-11-07T16:06:16.426Z</time>
      </trkpt>
      <trkpt lat="47.529594" lon="8.036716">
        <ele>458.312687</ele>
        <time>2021-11-07T16:06:31.179Z</time>
      </trkpt>
      <trkpt lat="47.529753" lon="8.036788">
        <ele>457.819240</ele>
        <time>2021-11-07T16:06:42.729Z</time>
      </trkpt>
      <trkpt lat="47.529857" lon="8.036835">
        <ele>457.496537</ele>
        <time>2021-11-07T16:06:50.264Z</time>
      </trkpt>
      <trkpt lat="47.529967" lon="8.036849">
        <ele>457.168874</ele>
        <time>2021-11-07T16:06:57.999Z</time>
      </trkpt>
      <trkpt lat="47.530078" lon="8.036829">
        <ele>456.837017</ele>
        <time>2021-11-07T16:07:05.758Z</time>
      </trkpt>
      <trkpt lat="47.530189" lon="8.036784">
        <ele>456.495470</ele>
        <time>2021-11-07T16:07:13.737Z</time>
      </trkpt>
      <trkpt lat="47.530326" lon="8.036693">
        <ele>456.049860</ele>
        <time>2021-11-07T16:07:24.193Z</time>
      </trkpt>
      <trkpt lat="47.530555" lon="8.036505">
        <ele>455.194885</ele>
        <time>2021-11-07T16:07:42.389Z</time>
      </trkpt>
      <trkpt lat="47.531129" lon="8.036010">
        <ele>452.885835</ele>
        <time>2021-11-07T16:08:28.539Z</time>
      </trkpt>
      <trkpt lat="47.531850" lon="8.035386">
        <ele>449.982814</ele>
        <time>2021-11-07T16:09:26.630Z</time>
      </trkpt>
      <trkpt lat="47.532372" lon="8.034956">
        <ele>445.333403</ele>
        <time>2021-11-07T16:10:08.222Z</time>
      </trkpt>
      <trkpt lat="47.532563" lon="8.034738">
        <ele>443.119965</ele>
        <time>2021-11-07T16:10:25.048Z</time>
      </trkpt>
      <trkpt lat="47.532695" lon="8.034506">
        <ele>441.239661</ele>
        <time>2021-11-07T16:10:39.344Z</time>
      </trkpt>
      <trkpt lat="47.533121" lon="8.033377">
        <ele>433.224051</ele>
        <time>2021-11-07T16:11:40.293Z</time>
      </trkpt>
      <trkpt lat="47.533213" lon="8.033283">
        <ele>432.146834</ele>
        <time>2021-11-07T16:11:48.064Z</time>
      </trkpt>
      <trkpt lat="47.533431" lon="8.033320">
        <ele>429.997886</ele>
        <time>2021-11-07T16:12:03.388Z</time>
      </trkpt>
      <trkpt lat="47.533544" lon="8.033538">
        <ele>428.180615</ele>
        <time>2021-11-07T16:12:16.333Z</time>
      </trkpt>
      <trkpt lat="47.533693" lon="8.034653">
        <ele>420.665063</ele>
        <time>2021-11-07T16:13:09.848Z</time>
      </trkpt>
      <trkpt lat="47.533861" lon="8.035378">
        <ele>415.596792</ele>
        <time>2021-11-07T16:13:45.931Z</time>
      </trkpt>
      <trkpt lat="47.534016" lon="8.035744">
        <ele>412.689016</ele>
        <time>2021-11-07T16:14:06.302Z</time>
      </trkpt>
      <trkpt lat="47.534197" lon="8.036173">
        <ele>409.278660</ele>
        <time>2021-11-07T16:14:30.116Z</time>
      </trkpt>
      <trkpt lat="47.534438" lon="8.036566">
        <ele>405.699546</ele>
        <time>2021-11-07T16:14:55.130Z</time>
      </trkpt>
      <trkpt lat="47.534824" lon="8.037044">
        <ele>400.675697</ele>
        <time>2021-11-07T16:15:30.267Z</time>
      </trkpt>
      <trkpt lat="47.535234" lon="8.037415">
        <ele>395.914731</ele>
        <time>2021-11-07T16:16:03.820Z</time>
      </trkpt>
      <trkpt lat="47.535392" lon="8.037553">
        <ele>394.127384</ele>
        <time>2021-11-07T16:16:16.603Z</time>
      </trkpt>
      <trkpt lat="47.535422" lon="8.037579">
        <ele>393.788689</ele>
        <time>2021-11-07T16:16:16.900Z</time>
      </trkpt>
      <trkpt lat="47.535603" lon="8.037763">
        <ele>391.649530</ele>
        <time>2021-11-07T16:16:18.803Z</time>
      </trkpt>
      <trkpt lat="47.535873" lon="8.038069">
        <ele>388.336750</ele>
        <time>2021-11-07T16:16:21.724Z</time>
      </trkpt>
      <trkpt lat="47.537246" lon="8.039781">
        <ele>370.686295</ele>
        <time>2021-11-07T16:16:37.281Z</time>
      </trkpt>
      <trkpt lat="47.537321" lon="8.039892">
        <ele>369.634606</ele>
        <time>2021-11-07T16:16:38.240Z</time>
      </trkpt>
      <trkpt lat="47.537395" lon="8.039830">
        <ele>368.791268</ele>
        <time>2021-11-07T16:16:39.252Z</time>
      </trkpt>
      <trkpt lat="47.537501" lon="8.039854">
        <ele>367.727581</ele>
        <time>2021-11-07T16:16:40.552Z</time>
      </trkpt>
      <trkpt lat="47.537395" lon="8.039830">
        <ele>366.663894</ele>
        <time>2021-11-07T16:16:41.866Z</time>
      </trkpt>
      <trkpt lat="47.537321" lon="8.039892">
        <ele>365.820556</ele>
        <time>2021-11-07T16:16:42.974Z</time>
      </trkpt>
      <trkpt lat="47.537434" lon="8.040115">
        <ele>363.953301</ele>
        <time>2021-11-07T16:16:44.557Z</time>
      </trkpt>
      <trkpt lat="47.537590" lon="8.040865">
        <ele>358.900730</ele>
        <time>2021-11-07T16:16:49.085Z</time>
      </trkpt>
      <trkpt lat="47.537697" lon="8.041635">
        <ele>353.957648</ele>
        <time>2021-11-07T16:16:53.564Z</time>
      </trkpt>
      <trkpt lat="47.537748" lon="8.041977">
        <ele>351.755399</ele>
        <time>2021-11-07T16:16:55.706Z</time>
      </trkpt>
      <trkpt lat="47.537814" lon="8.042475">
        <ele>348.564332</ele>
        <time>2021-11-07T16:16:58.685Z</time>
      </trkpt>
      <trkpt lat="47.537820" lon="8.042654">
        <ele>347.437439</ele>
        <time>2021-11-07T16:16:59.732Z</time>
      </trkpt>
      <trkpt lat="47.537814" lon="8.042851">
        <ele>346.197494</ele>
        <time>2021-11-07T16:17:00.974Z</time>
      </trkpt>
      <trkpt lat="47.537774" lon="8.043160">
        <ele>344.840312</ele>
        <time>2021-11-07T16:17:02.856Z</time>
      </trkpt>
      <trkpt lat="47.537732" lon="8.043404">
        <ele>344.193464</ele>
        <time>2021-11-07T16:17:04.448Z</time>
      </trkpt>
      <trkpt lat="47.537487" lon="8.044776">
        <ele>340.547807</ele>
        <time>2021-11-07T16:17:13.773Z</time>
      </trkpt>
      <trkpt lat="47.537460" lon="8.044932">
        <ele>340.134107</ele>
        <time>2021-11-07T16:17:15.157Z</time>
      </trkpt>
      <trkpt lat="47.537686" lon="8.045112">
        <ele>339.157725</ele>
        <time>2021-11-07T16:17:18.108Z</time>
      </trkpt>
      <trkpt lat="47.538203" lon="8.045387">
        <ele>337.787470</ele>
        <time>2021-11-07T16:17:24.724Z</time>
      </trkpt>
      <trkpt lat="47.538294" lon="8.045418">
        <ele>337.620558</ele>
        <time>2021-11-07T16:17:25.741Z</time>
      </trkpt>
      <trkpt lat="47.538340" lon="8.045430">
        <ele>337.537066</ele>
        <time>2021-11-07T16:17:26.313Z</time>
      </trkpt>
      <trkpt lat="47.538479" lon="8.045444">
        <ele>337.288025</ele>
        <time>2021-11-07T16:17:28.018Z</time>
      </trkpt>
      <trkpt lat="47.538763" lon="8.045382">
        <ele>336.774881</ele>
        <time>2021-11-07T16:17:31.278Z</time>
      </trkpt>
      <trkpt lat="47.538912" lon="8.045281">
        <ele>336.481976</ele>
        <time>2021-11-07T16:17:33.143Z</time>
      </trkpt>
      <trkpt lat="47.538984" lon="8.045208">
        <ele>336.326012</ele>
        <time>2021-11-07T16:17:34.076Z</time>
      </trkpt>
      <trkpt lat="47.539049" lon="8.045146">
        <ele>336.187817</ele>
        <time>2021-11-07T16:17:34.976Z</time>
      </trkpt>
      <trkpt lat="47.539168" lon="8.044994">
        <ele>335.906938</ele>
        <time>2021-11-07T16:17:36.602Z</time>
      </trkpt>
      <trkpt lat="47.539357" lon="8.044726">
        <ele>335.439253</ele>
        <time>2021-11-07T16:17:39.390Z</time>
      </trkpt>
      <trkpt lat="47.539485" lon="8.044571">
        <ele>335.218467</ele>
        <time>2021-11-07T16:17:41.134Z</time>
      </trkpt>
      <trkpt lat="47.539769" lon="8.044372">
        <ele>335.288138</ele>
        <time>2021-11-07T16:17:44.473Z</time>
      </trkpt>
      <trkpt lat="47.540105" lon="8.044383">
        <ele>335.362668</ele>
        <time>2021-11-07T16:17:48.351Z</time>
      </trkpt>
      <trkpt lat="47.540316" lon="8.044416">
        <ele>335.409720</ele>
        <time>2021-11-07T16:17:51.417Z</time>
      </trkpt>
      <trkpt lat="47.540345" lon="8.044329">
        <ele>335.424246</ele>
        <time>2021-11-07T16:17:52.291Z</time>
      </trkpt>
      <trkpt lat="47.540360" lon="8.044061">
        <ele>335.464505</ele>
        <time>2021-11-07T16:17:55.589Z</time>
      </trkpt>
      <trkpt lat="47.540394" lon="8.043626">
        <ele>335.530062</ele>
        <time>2021-11-07T16:18:02.791Z</time>
      </trkpt>
      <trkpt lat="47.540392" lon="8.043542">
        <ele>335.542645</ele>
        <time>2021-11-07T16:18:04.441Z</time>
      </trkpt>
      <trkpt lat="47.540358" lon="8.043349">
        <ele>335.572505</ele>
        <time>2021-11-07T16:18:08.675Z</time>
      </trkpt>
      <trkpt lat="47.540311" lon="8.043099">
        <ele>335.614762</ele>
        <time>2021-11-07T16:18:12.743Z</time>
      </trkpt>
      <trkpt lat="47.540230" lon="8.042774">
        <ele>335.744568</ele>
        <time>2021-11-07T16:18:18.952Z</time>
      </trkpt>
      <trkpt lat="47.540115" lon="8.042499">
        <ele>335.865773</ele>
        <time>2021-11-07T16:18:23.733Z</time>
      </trkpt>
      <trkpt lat="47.540094" lon="8.042446">
        <ele>335.888799</ele>
        <time>2021-11-07T16:18:25.089Z</time>
      </trkpt>
      <trkpt lat="47.540072" lon="8.042391">
        <ele>335.912753</ele>
        <time>2021-11-07T16:18:26.143Z</time>
      </trkpt>
      <trkpt lat="47.540034" lon="8.042303">
        <ele>335.951894</ele>
        <time>2021-11-07T16:18:29.145Z</time>
      </trkpt>
      <trkpt lat="47.540021" lon="8.042268">
        <ele>335.966861</ele>
        <time>2021-11-07T16:18:30.315Z</time>
      </trkpt>
      <trkpt lat="47.539991" lon="8.042065">
        <ele>336.044723</ele>
        <time>2021-11-07T16:18:35.632Z</time>
      </trkpt>
      <trkpt lat="47.539983" lon="8.041866">
        <ele>336.119418</ele>
        <time>2021-11-07T16:18:41.100Z</time>
      </trkpt>
      <trkpt lat="47.539998" lon="8.041644">
        <ele>336.203013</ele>
        <time>2021-11-07T16:18:43.906Z</time>
      </trkpt>
      <trkpt lat="47.540031" lon="8.041477">
        <ele>336.268211</ele>
        <time>2021-11-07T16:18:46.319Z</time>
      </trkpt>
      <trkpt lat="47.540079" lon="8.041350">
        <ele>336.322746</ele>
        <time>2021-11-07T16:18:48.172Z</time>
      </trkpt>
      <trkpt lat="47.540116" lon="8.041253">
        <ele>336.364490</ele>
        <time>2021-11-07T16:18:49.253Z</time>
      </trkpt>
      <trkpt lat="47.540240" lon="8.040995">
        <ele>336.483155</ele>
        <time>2021-11-07T16:18:52.154Z</time>
      </trkpt>
      <trkpt lat="47.540564" lon="8.040358">
        <ele>335.485772</ele>
        <time>2021-11-07T16:18:58.318Z</time>
      </trkpt>
      <trkpt lat="47.540612" lon="8.040244">
        <ele>335.162406</ele>
        <time>2021-11-07T16:18:59.357Z</time>
      </trkpt>
      <trkpt lat="47.540755" lon="8.039911">
        <ele>334.212538</ele>
        <time>2021-11-07T16:19:01.963Z</time>
      </trkpt>
      <trkpt lat="47.540973" lon="8.039326">
        <ele>332.604310</ele>
        <time>2021-11-07T16:19:06.233Z</time>
      </trkpt>
      <trkpt lat="47.541029" lon="8.038776">
        <ele>331.265625</ele>
        <time>2021-11-07T16:19:09.721Z</time>
      </trkpt>
      <trkpt lat="47.541015" lon="8.038511">
        <ele>330.625887</ele>
        <time>2021-11-07T16:19:11.355Z</time>
      </trkpt>
      <trkpt lat="47.541006" lon="8.038351">
        <ele>330.239472</ele>
        <time>2021-11-07T16:19:12.408Z</time>
      </trkpt>
      <trkpt lat="47.540394" lon="8.031575">
        <ele>321.856637</ele>
        <time>2021-11-07T16:20:04.228Z</time>
      </trkpt>
      <trkpt lat="47.540324" lon="8.030594">
        <ele>321.056591</ele>
        <time>2021-11-07T16:20:12.782Z</time>
      </trkpt>
      <trkpt lat="47.540275" lon="8.029790">
        <ele>320.824284</ele>
        <time>2021-11-07T16:20:20.119Z</time>
      </trkpt>
      <trkpt lat="47.540273" lon="8.028579">
        <ele>320.669353</ele>
        <time>2021-11-07T16:20:31.812Z</time>
      </trkpt>
      <trkpt lat="47.540306" lon="8.026756">
        <ele>320.899209</ele>
        <time>2021-11-07T16:20:50.464Z</time>
      </trkpt>
      <trkpt lat="47.540408" lon="8.025334">
        <ele>321.386186</ele>
        <time>2021-11-07T16:21:06.532Z</time>
      </trkpt>
      <trkpt lat="47.540490" lon="8.024315">
        <ele>322.962220</ele>
        <time>2021-11-07T16:21:20.314Z</time>
      </trkpt>
      <trkpt lat="47.540537" lon="8.023536">
        <ele>324.457633</ele>
        <time>2021-11-07T16:21:33.079Z</time>
      </trkpt>
      <trkpt lat="47.540454" lon="8.023022">
        <ele>325.468146</ele>
        <time>2021-11-07T16:21:42.981Z</time>
      </trkpt>
      <trkpt lat="47.540354" lon="8.022332">
        <ele>327.159231</ele>
        <time>2021-11-07T16:21:58.767Z</time>
      </trkpt>
      <trkpt lat="47.540204" lon="8.020975">
        <ele>333.336023</ele>
        <time>2021-11-07T16:22:36.290Z</time>
      </trkpt>
      <trkpt lat="47.540134" lon="8.020585">
        <ele>335.148762</ele>
        <time>2021-11-07T16:22:48.633Z</time>
      </trkpt>
      <trkpt lat="47.540098" lon="8.020321">
        <ele>336.358601</ele>
        <time>2021-11-07T16:22:57.416Z</time>
      </trkpt>
      <trkpt lat="47.540052" lon="8.019825">
        <ele>338.601208</ele>
        <time>2021-11-07T16:23:13.011Z</time>
      </trkpt>
      <trkpt lat="47.540031" lon="8.019456">
        <ele>340.123772</ele>
        <time>2021-11-07T16:23:24.266Z</time>
      </trkpt>
      <trkpt lat="47.540012" lon="8.018657">
        <ele>343.410985</ele>
        <time>2021-11-07T16:23:48.140Z</time>
      </trkpt>
      <trkpt lat="47.539979" lon="8.017566">
        <ele>347.901252</ele>
        <time>2021-11-07T16:24:17.415Z</time>
      </trkpt>
      <trkpt lat="47.539918" lon="8.015722">
        <ele>351.170883</ele>
        <time>2021-11-07T16:24:50.157Z</time>
      </trkpt>
      <trkpt lat="47.539908" lon="8.015397">
        <ele>351.545910</ele>
        <time>2021-11-07T16:24:54.810Z</time>
      </trkpt>
      <trkpt lat="47.539903" lon="8.015200">
        <ele>351.773159</ele>
        <time>2021-11-07T16:24:56.551Z</time>
      </trkpt>
      <trkpt lat="47.539798" lon="8.012369">
        <ele>351.203987</ele>
        <time>2021-11-07T16:25:20.853Z</time>
      </trkpt>
      <trkpt lat="47.539703" lon="8.011107">
        <ele>350.350753</ele>
        <time>2021-11-07T16:25:30.545Z</time>
      </trkpt>
      <trkpt lat="47.539645" lon="8.009866">
        <ele>349.478952</ele>
        <time>2021-11-07T16:25:40.497Z</time>
      </trkpt>
      <trkpt lat="47.539569" lon="8.007914">
        <ele>349.287581</ele>
        <time>2021-11-07T16:25:58.945Z</time>
      </trkpt>
      <trkpt lat="47.539590" lon="8.005890">
        <ele>349.209456</ele>
        <time>2021-11-07T16:26:24.544Z</time>
      </trkpt>
      <trkpt lat="47.539492" lon="8.004516">
        <ele>348.436319</ele>
        <time>2021-11-07T16:26:37.719Z</time>
      </trkpt>
      <trkpt lat="47.539434" lon="8.003156">
        <ele>345.297703</ele>
        <time>2021-11-07T16:26:46.867Z</time>
      </trkpt>
      <trkpt lat="47.539437" lon="8.002963">
        <ele>344.564826</ele>
        <time>2021-11-07T16:26:48.089Z</time>
      </trkpt>
      <trkpt lat="47.539437" lon="8.002525">
        <ele>342.902053</ele>
        <time>2021-11-07T16:26:50.827Z</time>
      </trkpt>
      <trkpt lat="47.539400" lon="8.001871">
        <ele>340.410578</ele>
        <time>2021-11-07T16:26:54.835Z</time>
      </trkpt>
      <trkpt lat="47.539365" lon="8.001150">
        <ele>337.572415</ele>
        <time>2021-11-07T16:26:59.175Z</time>
      </trkpt>
      <trkpt lat="47.539569" lon="7.998315">
        <ele>323.884154</ele>
        <time>2021-11-07T16:27:16.300Z</time>
      </trkpt>
      <trkpt lat="47.539590" lon="7.998122">
        <ele>323.267869</ele>
        <time>2021-11-07T16:27:17.485Z</time>
      </trkpt>
      <trkpt lat="47.539726" lon="7.997265">
        <ele>320.492537</ele>
        <time>2021-11-07T16:27:23.134Z</time>
      </trkpt>
      <trkpt lat="47.539838" lon="7.996117">
        <ele>316.835884</ele>
        <time>2021-11-07T16:27:30.789Z</time>
      </trkpt>
      <trkpt lat="47.539876" lon="7.995796">
        <ele>316.163587</ele>
        <time>2021-11-07T16:27:33.066Z</time>
      </trkpt>
      <trkpt lat="47.540013" lon="7.995140">
        <ele>315.485309</ele>
        <time>2021-11-07T16:27:38.407Z</time>
      </trkpt>
      <trkpt lat="47.540089" lon="7.994896">
        <ele>315.219876</ele>
        <time>2021-11-07T16:27:40.451Z</time>
      </trkpt>
      <trkpt lat="47.540316" lon="7.993620">
        <ele>313.916453</ele>
        <time>2021-11-07T16:27:51.364Z</time>
      </trkpt>
      <trkpt lat="47.540262" lon="7.992244">
        <ele>313.609587</ele>
        <time>2021-11-07T16:28:03.588Z</time>
      </trkpt>
      <trkpt lat="47.540194" lon="7.991768">
        <ele>313.574033</ele>
        <time>2021-11-07T16:28:08.543Z</time>
      </trkpt>
      <trkpt lat="47.540140" lon="7.991504">
        <ele>313.553875</ele>
        <time>2021-11-07T16:28:11.435Z</time>
      </trkpt>
      <trkpt lat="47.540104" lon="7.991287">
        <ele>313.537546</ele>
        <time>2021-11-07T16:28:28.415Z</time>
      </trkpt>
      <trkpt lat="47.540056" lon="7.990982">
        <ele>313.514661</ele>
        <time>2021-11-07T16:28:31.848Z</time>
      </trkpt>
      <trkpt lat="47.540018" lon="7.990553">
        <ele>313.579129</ele>
        <time>2021-11-07T16:28:36.676Z</time>
      </trkpt>
      <trkpt lat="47.540011" lon="7.990131">
        <ele>313.732406</ele>
        <time>2021-11-07T16:28:41.518Z</time>
      </trkpt>
      <trkpt lat="47.539990" lon="7.989097">
        <ele>314.108029</ele>
        <time>2021-11-07T16:28:53.525Z</time>
      </trkpt>
      <trkpt lat="47.539978" lon="7.988189">
        <ele>314.437793</ele>
        <time>2021-11-07T16:29:04.347Z</time>
      </trkpt>
      <trkpt lat="47.540321" lon="7.987087">
        <ele>314.639183</ele>
        <time>2021-11-07T16:29:17.634Z</time>
      </trkpt>
      <trkpt lat="47.540335" lon="7.986933">
        <ele>314.662829</ele>
        <time>2021-11-07T16:29:19.515Z</time>
      </trkpt>
      <trkpt lat="47.540347" lon="7.986737">
        <ele>314.692778</ele>
        <time>2021-11-07T16:29:21.644Z</time>
      </trkpt>
      <trkpt lat="47.539952" lon="7.986630">
        <ele>314.783295</ele>
        <time>2021-11-07T16:29:27.890Z</time>
      </trkpt>
      <trkpt lat="47.539549" lon="7.986535">
        <ele>314.882827</ele>
        <time>2021-11-07T16:29:33.443Z</time>
      </trkpt>
      <trkpt lat="47.539415" lon="7.986507">
        <ele>314.984265</ele>
        <time>2021-11-07T16:29:35.391Z</time>
      </trkpt>
      <trkpt lat="47.539274" lon="7.986488">
        <ele>315.090392</ele>
        <time>2021-11-07T16:29:37.103Z</time>
      </trkpt>
      <trkpt lat="47.538630" lon="7.986438">
        <ele>315.573783</ele>
        <time>2021-11-07T16:29:48.068Z</time>
      </trkpt>
      <trkpt lat="47.538514" lon="7.986428">
        <ele>315.660881</ele>
        <time>2021-11-07T16:29:49.618Z</time>
      </trkpt>
      <trkpt lat="47.538277" lon="7.986431">
        <ele>315.838538</ele>
        <time>2021-11-07T16:29:55.059Z</time>
      </trkpt>
      <trkpt lat="47.537897" lon="7.986428">
        <ele>316.123381</ele>
        <time>2021-11-07T16:30:03.140Z</time>
      </trkpt>
      <trkpt lat="47.537821" lon="7.986433">
        <ele>316.180405</ele>
        <time>2021-11-07T16:30:04.174Z</time>
      </trkpt>
      <trkpt lat="47.537815" lon="7.986191">
        <ele>316.465144</ele>
        <time>2021-11-07T16:30:07.962Z</time>
      </trkpt>
      <trkpt lat="47.537812" lon="7.986127">
        <ele>316.561288</ele>
        <time>2021-11-07T16:30:09.530Z</time>
      </trkpt>
      <trkpt lat="47.537884" lon="7.985939">
        <ele>316.885208</ele>
        <time>2021-11-07T16:30:11.879Z</time>
      </trkpt>
      <trkpt lat="47.538208" lon="7.985592">
        <ele>317.772744</ele>
        <time>2021-11-07T16:30:20.566Z</time>
      </trkpt>
      <trkpt lat="47.538160" lon="7.985490">
        <ele>317.959076</ele>
        <time>2021-11-07T16:30:22.626Z</time>
      </trkpt>
      <trkpt lat="47.537773" lon="7.984992">
        <ele>319.097063</ele>
        <time>2021-11-07T16:30:35.358Z</time>
      </trkpt>
      <trkpt lat="47.537732" lon="7.984941">
        <ele>319.215912</ele>
        <time>2021-11-07T16:30:36.358Z</time>
      </trkpt>
      <trkpt lat="47.537175" lon="7.984220">
        <ele>321.151350</ele>
        <time>2021-11-07T16:30:56.120Z</time>
      </trkpt>
      <trkpt lat="47.536849" lon="7.983808">
        <ele>322.535339</ele>
        <time>2021-11-07T16:31:06.654Z</time>
      </trkpt>
      <trkpt lat="47.536410" lon="7.983244">
        <ele>324.412127</ele>
        <time>2021-11-07T16:31:23.145Z</time>
      </trkpt>
      <trkpt lat="47.536530" lon="7.982859">
        <ele>325.336710</ele>
        <time>2021-11-07T16:31:31.515Z</time>
      </trkpt>
      <trkpt lat="47.536764" lon="7.982225">
        <ele>326.874529</ele>
        <time>2021-11-07T16:31:46.656Z</time>
      </trkpt>
      <trkpt lat="47.536775" lon="7.982096">
        <ele>327.146050</ele>
        <time>2021-11-07T16:31:49.251Z</time>
      </trkpt>
      <trkpt lat="47.536842" lon="7.981878">
        <ele>327.646236</ele>
        <time>2021-11-07T16:31:54.341Z</time>
      </trkpt>
      <trkpt lat="47.536896" lon="7.981697">
        <ele>328.059465</ele>
        <time>2021-11-07T16:31:58.397Z</time>
      </trkpt>
      <trkpt lat="47.536959" lon="7.981602">
        <ele>328.337545</ele>
        <time>2021-11-07T16:32:00.877Z</time>
      </trkpt>
      <trkpt lat="47.537107" lon="7.981082">
        <ele>329.515969</ele>
        <time>2021-11-07T16:32:11.826Z</time>
      </trkpt>
      <trkpt lat="47.537461" lon="7.980118">
        <ele>331.586839</ele>
        <time>2021-11-07T16:32:30.380Z</time>
      </trkpt>
      <trkpt lat="47.537583" lon="7.979760">
        <ele>331.592623</ele>
        <time>2021-11-07T16:32:36.384Z</time>
      </trkpt>
      <trkpt lat="47.537955" lon="7.978125">
        <ele>331.617507</ele>
        <time>2021-11-07T16:32:52.726Z</time>
      </trkpt>
      <trkpt lat="47.538107" lon="7.977240">
        <ele>331.037632</ele>
        <time>2021-11-07T16:32:59.632Z</time>
      </trkpt>
      <trkpt lat="47.538242" lon="7.976347">
        <ele>329.924297</ele>
        <time>2021-11-07T16:33:06.509Z</time>
      </trkpt>
      <trkpt lat="47.538706" lon="7.974459">
        <ele>327.270721</ele>
        <time>2021-11-07T16:33:21.438Z</time>
      </trkpt>
      <trkpt lat="47.539262" lon="7.971768">
        <ele>322.946900</ele>
        <time>2021-11-07T16:33:41.782Z</time>
      </trkpt>
      <trkpt lat="47.539783" lon="7.969587">
        <ele>319.440763</ele>
        <time>2021-11-07T16:33:58.262Z</time>
      </trkpt>
      <trkpt lat="47.540214" lon="7.967628">
        <ele>317.010598</ele>
        <time>2021-11-07T16:34:14.062Z</time>
      </trkpt>
      <trkpt lat="47.540896" lon="7.964711">
        <ele>315.081810</ele>
        <time>2021-11-07T16:34:40.168Z</time>
      </trkpt>
      <trkpt lat="47.541095" lon="7.964204">
        <ele>314.743304</ele>
        <time>2021-11-07T16:34:45.204Z</time>
      </trkpt>
      <trkpt lat="47.541169" lon="7.964123">
        <ele>314.664634</ele>
        <time>2021-11-07T16:34:46.162Z</time>
      </trkpt>
      <trkpt lat="47.541129" lon="7.964008">
        <ele>314.589964</ele>
        <time>2021-11-07T16:34:47.605Z</time>
      </trkpt>
      <trkpt lat="47.541019" lon="7.963815">
        <ele>314.444173</ele>
        <time>2021-11-07T16:34:49.955Z</time>
      </trkpt>
      <trkpt lat="47.541123" lon="7.963520">
        <ele>314.252081</ele>
        <time>2021-11-07T16:34:52.688Z</time>
      </trkpt>
      <trkpt lat="47.541217" lon="7.963187">
        <ele>314.043750</ele>
        <time>2021-11-07T16:34:55.590Z</time>
      </trkpt>
      <trkpt lat="47.541258" lon="7.962975">
        <ele>313.916464</ele>
        <time>2021-11-07T16:34:57.985Z</time>
      </trkpt>
      <trkpt lat="47.541293" lon="7.962730">
        <ele>313.771922</ele>
        <time>2021-11-07T16:34:59.969Z</time>
      </trkpt>
      <trkpt lat="47.541308" lon="7.962513">
        <ele>313.489383</ele>
        <time>2021-11-07T16:35:01.994Z</time>
      </trkpt>
      <trkpt lat="47.541314" lon="7.962377">
        <ele>313.293888</ele>
        <time>2021-11-07T16:35:03.347Z</time>
      </trkpt>
      <trkpt lat="47.541316" lon="7.962197">
        <ele>313.035661</ele>
        <time>2021-11-07T16:35:04.691Z</time>
      </trkpt>
      <trkpt lat="47.541242" lon="7.961294">
        <ele>311.730884</ele>
        <time>2021-11-07T16:35:11.715Z</time>
      </trkpt>
      <trkpt lat="47.541153" lon="7.960814">
        <ele>311.016869</ele>
        <time>2021-11-07T16:35:15.245Z</time>
      </trkpt>
      <trkpt lat="47.541060" lon="7.960321">
        <ele>310.282614</ele>
        <time>2021-11-07T16:35:18.835Z</time>
      </trkpt>
      <trkpt lat="47.541027" lon="7.959944">
        <ele>309.605340</ele>
        <time>2021-11-07T16:35:21.338Z</time>
      </trkpt>
      <trkpt lat="47.541019" lon="7.959792">
        <ele>309.236566</ele>
        <time>2021-11-07T16:35:22.383Z</time>
      </trkpt>
      <trkpt lat="47.541012" lon="7.959578">
        <ele>308.718334</ele>
        <time>2021-11-07T16:35:23.857Z</time>
      </trkpt>
      <trkpt lat="47.541016" lon="7.959388">
        <ele>308.258538</ele>
        <time>2021-11-07T16:35:25.060Z</time>
      </trkpt>
      <trkpt lat="47.541081" lon="7.958828">
        <ele>306.884131</ele>
        <time>2021-11-07T16:35:28.828Z</time>
      </trkpt>
      <trkpt lat="47.541226" lon="7.958150">
        <ele>305.163855</ele>
        <time>2021-11-07T16:35:33.589Z</time>
      </trkpt>
      <trkpt lat="47.541305" lon="7.957787">
        <ele>304.241332</ele>
        <time>2021-11-07T16:35:36.073Z</time>
      </trkpt>
      <trkpt lat="47.541355" lon="7.957559">
        <ele>303.661478</ele>
        <time>2021-11-07T16:35:37.775Z</time>
      </trkpt>
      <trkpt lat="47.541450" lon="7.956897">
        <ele>302.756301</ele>
        <time>2021-11-07T16:35:42.409Z</time>
      </trkpt>
      <trkpt lat="47.541464" lon="7.956698">
        <ele>302.514860</ele>
        <time>2021-11-07T16:35:43.815Z</time>
      </trkpt>
      <trkpt lat="47.541533" lon="7.955526">
        <ele>301.095202</ele>
        <time>2021-11-07T16:35:52.649Z</time>
      </trkpt>
      <trkpt lat="47.541554" lon="7.955311">
        <ele>300.833053</ele>
        <time>2021-11-07T16:35:54.686Z</time>
      </trkpt>
      <trkpt lat="47.541735" lon="7.953892">
        <ele>300.357032</ele>
        <time>2021-11-07T16:36:08.895Z</time>
      </trkpt>
      <trkpt lat="47.541773" lon="7.953695">
        <ele>300.375347</ele>
        <time>2021-11-07T16:36:11.143Z</time>
      </trkpt>
      <trkpt lat="47.541791" lon="7.953601">
        <ele>300.384082</ele>
        <time>2021-11-07T16:36:12.177Z</time>
      </trkpt>
      <trkpt lat="47.541991" lon="7.952667">
        <ele>300.471677</ele>
        <time>2021-11-07T16:36:23.034Z</time>
      </trkpt>
      <trkpt lat="47.542169" lon="7.951815">
        <ele>300.579546</ele>
        <time>2021-11-07T16:36:32.771Z</time>
      </trkpt>
      <trkpt lat="47.542192" lon="7.951713">
        <ele>300.595373</ele>
        <time>2021-11-07T16:36:34.034Z</time>
      </trkpt>
      <trkpt lat="47.542357" lon="7.951037">
        <ele>300.701160</ele>
        <time>2021-11-07T16:36:41.498Z</time>
      </trkpt>
      <trkpt lat="47.542444" lon="7.950687">
        <ele>300.756049</ele>
        <time>2021-11-07T16:36:45.329Z</time>
      </trkpt>
      <trkpt lat="47.542546" lon="7.950274">
        <ele>300.820768</ele>
        <time>2021-11-07T16:36:49.676Z</time>
      </trkpt>
      <trkpt lat="47.542554" lon="7.950231">
        <ele>300.827332</ele>
        <time>2021-11-07T16:36:50.163Z</time>
      </trkpt>
      <trkpt lat="47.542560" lon="7.950202">
        <ele>300.831796</ele>
        <time>2021-11-07T16:36:50.496Z</time>
      </trkpt>
      <trkpt lat="47.542609" lon="7.949914">
        <ele>300.875505</ele>
        <time>2021-11-07T16:36:53.495Z</time>
      </trkpt>
      <trkpt lat="47.542719" lon="7.949175">
        <ele>301.252285</ele>
        <time>2021-11-07T16:37:01.398Z</time>
      </trkpt>
      <trkpt lat="47.542826" lon="7.948298">
        <ele>301.784043</ele>
        <time>2021-11-07T16:37:12.341Z</time>
      </trkpt>
      <trkpt lat="47.542838" lon="7.948225">
        <ele>301.828873</ele>
        <time>2021-11-07T16:37:13.169Z</time>
      </trkpt>
      <trkpt lat="47.542875" lon="7.948001">
        <ele>301.966470</ele>
        <time>2021-11-07T16:37:16.052Z</time>
      </trkpt>
      <trkpt lat="47.542928" lon="7.947798">
        <ele>302.096338</ele>
        <time>2021-11-07T16:37:18.975Z</time>
      </trkpt>
      <trkpt lat="47.542957" lon="7.947651">
        <ele>302.187717</ele>
        <time>2021-11-07T16:37:20.683Z</time>
      </trkpt>
      <trkpt lat="47.543050" lon="7.947411">
        <ele>302.352834</ele>
        <time>2021-11-07T16:37:25.047Z</time>
      </trkpt>
      <trkpt lat="47.543087" lon="7.947317">
        <ele>302.417759</ele>
        <time>2021-11-07T16:37:26.326Z</time>
      </trkpt>
      <trkpt lat="47.543092" lon="7.947257">
        <ele>302.453831</ele>
        <time>2021-11-07T16:37:27.116Z</time>
      </trkpt>
      <trkpt lat="47.543097" lon="7.947186">
        <ele>302.504045</ele>
        <time>2021-11-07T16:37:27.965Z</time>
      </trkpt>
      <trkpt lat="47.543086" lon="7.947052">
        <ele>302.677318</ele>
        <time>2021-11-07T16:37:29.795Z</time>
      </trkpt>
      <trkpt lat="47.543056" lon="7.946935">
        <ele>302.837972</ele>
        <time>2021-11-07T16:37:32.162Z</time>
      </trkpt>
      <trkpt lat="47.543045" lon="7.946881">
        <ele>302.910376</ele>
        <time>2021-11-07T16:37:33.274Z</time>
      </trkpt>
      <trkpt lat="47.542982" lon="7.946547">
        <ele>303.355531</ele>
        <time>2021-11-07T16:37:37.873Z</time>
      </trkpt>
      <trkpt lat="47.542974" lon="7.946495">
        <ele>303.423991</ele>
        <time>2021-11-07T16:37:39.087Z</time>
      </trkpt>
      <trkpt lat="47.542960" lon="7.946400">
        <ele>303.548808</ele>
        <time>2021-11-07T16:37:40.923Z</time>
      </trkpt>
      <trkpt lat="47.542916" lon="7.945730">
        <ele>304.412901</ele>
        <time>2021-11-07T16:37:51.500Z</time>
      </trkpt>
      <trkpt lat="47.542913" lon="7.945267">
        <ele>305.007250</ele>
        <time>2021-11-07T16:37:58.986Z</time>
      </trkpt>
      <trkpt lat="47.543007" lon="7.943867">
        <ele>306.154572</ele>
        <time>2021-11-07T16:38:19.725Z</time>
      </trkpt>
      <trkpt lat="47.543161" lon="7.942213">
        <ele>306.734832</ele>
        <time>2021-11-07T16:38:38.131Z</time>
      </trkpt>
      <trkpt lat="47.543435" lon="7.940670">
        <ele>305.664273</ele>
        <time>2021-11-07T16:38:51.079Z</time>
      </trkpt>
      <trkpt lat="47.543826" lon="7.939433">
        <ele>304.435288</ele>
        <time>2021-11-07T16:39:01.480Z</time>
      </trkpt>
      <trkpt lat="47.544472" lon="7.937932">
        <ele>302.262190</ele>
        <time>2021-11-07T16:39:14.805Z</time>
      </trkpt>
      <trkpt lat="47.544705" lon="7.937395">
        <ele>301.482905</ele>
        <time>2021-11-07T16:39:19.644Z</time>
      </trkpt>
      <trkpt lat="47.544903" lon="7.936917">
        <ele>300.867856</ele>
        <time>2021-11-07T16:39:23.905Z</time>
      </trkpt>
      <trkpt lat="47.545074" lon="7.936484">
        <ele>300.364411</ele>
        <time>2021-11-07T16:39:27.736Z</time>
      </trkpt>
      <trkpt lat="47.545457" lon="7.935110">
        <ele>298.872591</ele>
        <time>2021-11-07T16:39:39.104Z</time>
      </trkpt>
      <trkpt lat="47.545674" lon="7.933625">
        <ele>298.627267</ele>
        <time>2021-11-07T16:39:52.184Z</time>
      </trkpt>
      <trkpt lat="47.545702" lon="7.933290">
        <ele>298.659769</ele>
        <time>2021-11-07T16:39:55.764Z</time>
      </trkpt>
      <trkpt lat="47.545724" lon="7.932758">
        <ele>298.711089</ele>
        <time>2021-11-07T16:40:02.031Z</time>
      </trkpt>
      <trkpt lat="47.545721" lon="7.931992">
        <ele>298.949831</ele>
        <time>2021-11-07T16:40:12.069Z</time>
      </trkpt>
      <trkpt lat="47.545696" lon="7.931497">
        <ele>299.603159</ele>
        <time>2021-11-07T16:40:19.275Z</time>
      </trkpt>
      <trkpt lat="47.545661" lon="7.930955">
        <ele>300.319783</ele>
        <time>2021-11-07T16:40:27.970Z</time>
      </trkpt>
      <trkpt lat="47.545563" lon="7.929641">
        <ele>302.059764</ele>
        <time>2021-11-07T16:40:50.310Z</time>
      </trkpt>
      <trkpt lat="47.545475" lon="7.928419">
        <ele>301.956565</ele>
        <time>2021-11-07T16:41:06.613Z</time>
      </trkpt>
      <trkpt lat="47.545421" lon="7.927686">
        <ele>301.732802</ele>
        <time>2021-11-07T16:41:12.717Z</time>
      </trkpt>
      <trkpt lat="47.545406" lon="7.927306">
        <ele>301.617287</ele>
        <time>2021-11-07T16:41:15.621Z</time>
      </trkpt>
      <trkpt lat="47.545407" lon="7.927001">
        <ele>301.524728</ele>
        <time>2021-11-07T16:41:17.907Z</time>
      </trkpt>
      <trkpt lat="47.545409" lon="7.926773">
        <ele>301.349716</ele>
        <time>2021-11-07T16:41:19.537Z</time>
      </trkpt>
      <trkpt lat="47.545417" lon="7.925848">
        <ele>299.062193</ele>
        <time>2021-11-07T16:41:25.872Z</time>
      </trkpt>
      <trkpt lat="47.545446" lon="7.925350">
        <ele>297.826168</ele>
        <time>2021-11-07T16:41:29.163Z</time>
      </trkpt>
      <trkpt lat="47.545466" lon="7.924880">
        <ele>296.661649</ele>
        <time>2021-11-07T16:41:32.217Z</time>
      </trkpt>
      <trkpt lat="47.545481" lon="7.924396">
        <ele>295.463557</ele>
        <time>2021-11-07T16:41:35.300Z</time>
      </trkpt>
      <trkpt lat="47.545521" lon="7.923709">
        <ele>294.159193</ele>
        <time>2021-11-07T16:41:39.825Z</time>
      </trkpt>
      <trkpt lat="47.545536" lon="7.923407">
        <ele>293.677655</ele>
        <time>2021-11-07T16:41:41.973Z</time>
      </trkpt>
      <trkpt lat="47.545553" lon="7.923142">
        <ele>293.254354</ele>
        <time>2021-11-07T16:41:43.804Z</time>
      </trkpt>
      <trkpt lat="47.545587" lon="7.922895">
        <ele>292.853491</ele>
        <time>2021-11-07T16:41:45.738Z</time>
      </trkpt>
      <trkpt lat="47.545641" lon="7.922610">
        <ele>292.382770</ele>
        <time>2021-11-07T16:41:47.884Z</time>
      </trkpt>
      <trkpt lat="47.545690" lon="7.922369">
        <ele>291.982525</ele>
        <time>2021-11-07T16:41:49.890Z</time>
      </trkpt>
      <trkpt lat="47.545699" lon="7.922325">
        <ele>291.909415</ele>
        <time>2021-11-07T16:41:50.184Z</time>
      </trkpt>
      <trkpt lat="47.545714" lon="7.922249">
        <ele>291.783500</ele>
        <time>2021-11-07T16:41:50.774Z</time>
      </trkpt>
      <trkpt lat="47.545778" lon="7.921947">
        <ele>291.280150</ele>
        <time>2021-11-07T16:41:53.477Z</time>
      </trkpt>
      <trkpt lat="47.545810" lon="7.921755">
        <ele>290.965664</ele>
        <time>2021-11-07T16:41:54.958Z</time>
      </trkpt>
      <trkpt lat="47.545881" lon="7.921096">
        <ele>290.522655</ele>
        <time>2021-11-07T16:42:00.420Z</time>
      </trkpt>
      <trkpt lat="47.545913" lon="7.920765">
        <ele>290.435447</ele>
        <time>2021-11-07T16:42:03.324Z</time>
      </trkpt>
      <trkpt lat="47.545973" lon="7.920313">
        <ele>290.315304</ele>
        <time>2021-11-07T16:42:07.833Z</time>
      </trkpt>
      <trkpt lat="47.546128" lon="7.919617">
        <ele>290.124158</ele>
        <time>2021-11-07T16:42:15.186Z</time>
      </trkpt>
      <trkpt lat="47.546262" lon="7.919081">
        <ele>289.975086</ele>
        <time>2021-11-07T16:42:21.274Z</time>
      </trkpt>
      <trkpt lat="47.546656" lon="7.917520">
        <ele>289.381847</ele>
        <time>2021-11-07T16:42:36.421Z</time>
      </trkpt>
      <trkpt lat="47.546821" lon="7.916867">
        <ele>289.129409</ele>
        <time>2021-11-07T16:42:42.075Z</time>
      </trkpt>
      <trkpt lat="47.547032" lon="7.916218">
        <ele>288.944843</ele>
        <time>2021-11-07T16:42:48.372Z</time>
      </trkpt>
      <trkpt lat="47.547091" lon="7.916039">
        <ele>288.920276</ele>
        <time>2021-11-07T16:42:50.141Z</time>
      </trkpt>
      <trkpt lat="47.547113" lon="7.915971">
        <ele>288.910976</ele>
        <time>2021-11-07T16:42:50.726Z</time>
      </trkpt>
      <trkpt lat="47.547423" lon="7.915080">
        <ele>288.787353</ele>
        <time>2021-11-07T16:43:00.100Z</time>
      </trkpt>
      <trkpt lat="47.547994" lon="7.913433">
        <ele>289.075832</ele>
        <time>2021-11-07T16:43:19.785Z</time>
      </trkpt>
      <trkpt lat="47.548027" lon="7.913334">
        <ele>289.135076</ele>
        <time>2021-11-07T16:43:21.144Z</time>
      </trkpt>
      <trkpt lat="47.548412" lon="7.912168">
        <ele>289.831556</ele>
        <time>2021-11-07T16:43:37.547Z</time>
      </trkpt>
      <trkpt lat="47.549012" lon="7.910340">
        <ele>291.302320</ele>
        <time>2021-11-07T16:44:04.534Z</time>
      </trkpt>
      <trkpt lat="47.549102" lon="7.910058">
        <ele>291.545718</ele>
        <time>2021-11-07T16:44:08.656Z</time>
      </trkpt>
      <trkpt lat="47.549195" lon="7.909756">
        <ele>291.804731</ele>
        <time>2021-11-07T16:44:12.958Z</time>
      </trkpt>
      <trkpt lat="47.549277" lon="7.909484">
        <ele>292.037176</ele>
        <time>2021-11-07T16:44:16.821Z</time>
      </trkpt>
      <trkpt lat="47.549520" lon="7.908678">
        <ele>292.911596</ele>
        <time>2021-11-07T16:44:28.247Z</time>
      </trkpt>
      <trkpt lat="47.549539" lon="7.908625">
        <ele>292.973909</ele>
        <time>2021-11-07T16:44:28.988Z</time>
      </trkpt>
      <trkpt lat="47.550497" lon="7.905558">
        <ele>297.532980</ele>
        <time>2021-11-07T16:45:18.654Z</time>
      </trkpt>
      <trkpt lat="47.550579" lon="7.905265">
        <ele>298.085256</ele>
        <time>2021-11-07T16:45:25.137Z</time>
      </trkpt>
      <trkpt lat="47.550497" lon="7.905558">
        <ele>298.637532</ele>
        <time>2021-11-07T16:45:30.947Z</time>
      </trkpt>
      <trkpt lat="47.550283" lon="7.905413">
        <ele>299.244582</ele>
        <time>2021-11-07T16:45:39.192Z</time>
      </trkpt>
      <trkpt lat="47.550067" lon="7.905245">
        <ele>300.015827</ele>
        <time>2021-11-07T16:45:47.954Z</time>
      </trkpt>
      <trkpt lat="47.549867" lon="7.905155">
        <ele>300.808298</ele>
        <time>2021-11-07T16:45:55.158Z</time>
      </trkpt>
      <trkpt lat="47.549868" lon="7.905010">
        <ele>301.179366</ele>
        <time>2021-11-07T16:45:58.710Z</time>
      </trkpt>
      <trkpt lat="47.550025" lon="7.904774">
        <ele>302.027318</ele>
        <time>2021-11-07T16:46:06.597Z</time>
      </trkpt>
      <trkpt lat="47.550302" lon="7.904164">
        <ele>303.908675</ele>
        <time>2021-11-07T16:46:24.530Z</time>
      </trkpt>
      <trkpt lat="47.550498" lon="7.903445">
        <ele>305.892946</ele>
        <time>2021-11-07T16:46:44.102Z</time>
      </trkpt>
      <trkpt lat="47.550688" lon="7.902451">
        <ele>308.525598</ele>
        <time>2021-11-07T16:47:06.650Z</time>
      </trkpt>
      <trkpt lat="47.550757" lon="7.901591">
        <ele>310.730445</ele>
        <time>2021-11-07T16:47:26.447Z</time>
      </trkpt>
      <trkpt lat="47.550769" lon="7.901362">
        <ele>311.315199</ele>
        <time>2021-11-07T16:47:32.355Z</time>
      </trkpt>
      <trkpt lat="47.550801" lon="7.900244">
        <ele>314.256541</ele>
        <time>2021-11-07T16:47:56.752Z</time>
      </trkpt>
      <trkpt lat="47.550819" lon="7.898109">
        <ele>320.201130</ele>
        <time>2021-11-07T16:48:43.792Z</time>
      </trkpt>
      <trkpt lat="47.550648" lon="7.896481">
        <ele>322.664410</ele>
        <time>2021-11-07T16:49:11.447Z</time>
      </trkpt>
      <trkpt lat="47.550639" lon="7.896345">
        <ele>322.852173</ele>
        <time>2021-11-07T16:49:13.823Z</time>
      </trkpt>
      <trkpt lat="47.550660" lon="7.896255">
        <ele>322.983016</ele>
        <time>2021-11-07T16:49:14.623Z</time>
      </trkpt>
      <trkpt lat="47.550838" lon="7.895509">
        <ele>324.070198</ele>
        <time>2021-11-07T16:49:24.791Z</time>
      </trkpt>
      <trkpt lat="47.550878" lon="7.895158">
        <ele>324.500622</ele>
        <time>2021-11-07T16:49:28.854Z</time>
      </trkpt>
      <trkpt lat="47.550908" lon="7.894308">
        <ele>325.443443</ele>
        <time>2021-11-07T16:49:39.326Z</time>
      </trkpt>
      <trkpt lat="47.550892" lon="7.893176">
        <ele>326.697620</ele>
        <time>2021-11-07T16:49:54.043Z</time>
      </trkpt>
      <trkpt lat="47.550904" lon="7.891725">
        <ele>330.620099</ele>
        <time>2021-11-07T16:50:23.805Z</time>
      </trkpt>
      <trkpt lat="47.550915" lon="7.890600">
        <ele>334.497610</ele>
        <time>2021-11-07T16:50:52.645Z</time>
      </trkpt>
      <trkpt lat="47.550833" lon="7.889069">
        <ele>340.532761</ele>
        <time>2021-11-07T16:51:35.279Z</time>
      </trkpt>
      <trkpt lat="47.550831" lon="7.888611">
        <ele>342.456008</ele>
        <time>2021-11-07T16:51:47.849Z</time>
      </trkpt>
      <trkpt lat="47.550789" lon="7.887816">
        <ele>345.804540</ele>
        <time>2021-11-07T16:52:08.461Z</time>
      </trkpt>
      <trkpt lat="47.550758" lon="7.887295">
        <ele>347.943293</ele>
        <time>2021-11-07T16:52:22.282Z</time>
      </trkpt>
      <trkpt lat="47.550677" lon="7.886476">
        <ele>350.940929</ele>
        <time>2021-11-07T16:52:43.771Z</time>
      </trkpt>
      <trkpt lat="47.550548" lon="7.885799">
        <ele>353.488483</ele>
        <time>2021-11-07T16:53:00.974Z</time>
      </trkpt>
      <trkpt lat="47.550391" lon="7.885109">
        <ele>356.125466</ele>
        <time>2021-11-07T16:53:18.612Z</time>
      </trkpt>
      <trkpt lat="47.550332" lon="7.884727">
        <ele>357.458988</ele>
        <time>2021-11-07T16:53:27.302Z</time>
      </trkpt>
      <trkpt lat="47.550234" lon="7.883221">
        <ele>361.428960</ele>
        <time>2021-11-07T16:54:00.134Z</time>
      </trkpt>
      <trkpt lat="47.549927" lon="7.881490">
        <ele>366.124848</ele>
        <time>2021-11-07T16:54:32.397Z</time>
      </trkpt>
      <trkpt lat="47.549726" lon="7.880786">
        <ele>368.130219</ele>
        <time>2021-11-07T16:54:48.267Z</time>
      </trkpt>
      <trkpt lat="47.549327" lon="7.879547">
        <ele>371.701301</ele>
        <time>2021-11-07T16:55:18.121Z</time>
      </trkpt>
      <trkpt lat="47.549318" lon="7.879398">
        <ele>372.070536</ele>
        <time>2021-11-07T16:55:21.263Z</time>
      </trkpt>
      <trkpt lat="47.549140" lon="7.879391">
        <ele>372.721688</ele>
        <time>2021-11-07T16:55:28.142Z</time>
      </trkpt>
      <trkpt lat="47.548847" lon="7.879298">
        <ele>373.817463</ele>
        <time>2021-11-07T16:55:37.772Z</time>
      </trkpt>
      <trkpt lat="47.548718" lon="7.879258">
        <ele>374.299420</ele>
        <time>2021-11-07T16:55:41.854Z</time>
      </trkpt>
      <trkpt lat="47.548422" lon="7.878959">
        <ele>375.609504</ele>
        <time>2021-11-07T16:55:52.500Z</time>
      </trkpt>
      <trkpt lat="47.548234" lon="7.878638">
        <ele>376.658507</ele>
        <time>2021-11-07T16:56:00.888Z</time>
      </trkpt>
      <trkpt lat="47.547992" lon="7.877974">
        <ele>377.701811</ele>
        <time>2021-11-07T16:56:13.996Z</time>
      </trkpt>
      <trkpt lat="47.547574" lon="7.876801">
        <ele>377.282701</ele>
        <time>2021-11-07T16:56:27.827Z</time>
      </trkpt>
      <trkpt lat="47.547126" lon="7.875801">
        <ele>376.455958</ele>
        <time>2021-11-07T16:56:36.609Z</time>
      </trkpt>
      <trkpt lat="47.546309" lon="7.874154">
        <ele>369.953158</ele>
        <time>2021-11-07T16:56:49.798Z</time>
      </trkpt>
      <trkpt lat="47.546135" lon="7.873859">
        <ele>368.706758</ele>
        <time>2021-11-07T16:56:52.180Z</time>
      </trkpt>
      <trkpt lat="47.546077" lon="7.873763">
        <ele>368.216172</ele>
        <time>2021-11-07T16:56:52.991Z</time>
      </trkpt>
      <trkpt lat="47.545934" lon="7.873549">
        <ele>366.824300</ele>
        <time>2021-11-07T16:56:54.795Z</time>
      </trkpt>
      <trkpt lat="47.545746" lon="7.873302">
        <ele>365.103606</ele>
        <time>2021-11-07T16:56:57.084Z</time>
      </trkpt>
      <trkpt lat="47.545515" lon="7.873015">
        <ele>363.039144</ele>
        <time>2021-11-07T16:56:59.782Z</time>
      </trkpt>
      <trkpt lat="47.545478" lon="7.872968">
        <ele>362.705392</ele>
        <time>2021-11-07T16:57:00.224Z</time>
      </trkpt>
      <trkpt lat="47.545375" lon="7.872836">
        <ele>361.772793</ele>
        <time>2021-11-07T16:57:01.418Z</time>
      </trkpt>
      <trkpt lat="47.545131" lon="7.872664">
        <ele>359.922439</ele>
        <time>2021-11-07T16:57:03.876Z</time>
      </trkpt>
      <trkpt lat="47.544883" lon="7.872555">
        <ele>358.151038</ele>
        <time>2021-11-07T16:57:06.199Z</time>
      </trkpt>
      <trkpt lat="47.544390" lon="7.872423">
        <ele>354.911958</ele>
        <time>2021-11-07T16:57:10.664Z</time>
      </trkpt>
      <trkpt lat="47.543332" lon="7.872237">
        <ele>348.588062</ele>
        <time>2021-11-07T16:57:20.430Z</time>
      </trkpt>
      <trkpt lat="47.543251" lon="7.872152">
        <ele>347.998878</ele>
        <time>2021-11-07T16:57:21.372Z</time>
      </trkpt>
      <trkpt lat="47.543233" lon="7.872082">
        <ele>347.698748</ele>
        <time>2021-11-07T16:57:21.792Z</time>
      </trkpt>
      <trkpt lat="47.543013" lon="7.872182">
        <ele>346.332835</ele>
        <time>2021-11-07T16:57:24.033Z</time>
      </trkpt>
      <trkpt lat="47.542919" lon="7.872226">
        <ele>345.747702</ele>
        <time>2021-11-07T16:57:24.954Z</time>
      </trkpt>
      <trkpt lat="47.542814" lon="7.872280">
        <ele>345.482417</ele>
        <time>2021-11-07T16:57:26.002Z</time>
      </trkpt>
      <trkpt lat="47.542714" lon="7.872334">
        <ele>345.482417</ele>
        <time>2021-11-07T16:57:27.079Z</time>
      </trkpt>
      <trkpt lat="47.542537" lon="7.872430">
        <ele>345.482417</ele>
        <time>2021-11-07T16:57:28.804Z</time>
      </trkpt>
      <trkpt lat="47.542436" lon="7.872494">
        <ele>345.482417</ele>
        <time>2021-11-07T16:57:30.108Z</time>
      </trkpt>
      <trkpt lat="47.542394" lon="7.872341">
        <ele>345.482417</ele>
        <time>2021-11-07T16:57:31.186Z</time>
      </trkpt>
      <trkpt lat="47.542218" lon="7.871866">
        <ele>345.482417</ele>
        <time>2021-11-07T16:57:34.821Z</time>
      </trkpt>
      <trkpt lat="47.542091" lon="7.871721">
        <ele>345.482417</ele>
        <time>2021-11-07T16:57:36.330Z</time>
      </trkpt>
      <trkpt lat="47.542067" lon="7.871664">
        <ele>345.482417</ele>
        <time>2021-11-07T16:57:37.025Z</time>
      </trkpt>
      <trkpt lat="47.542039" lon="7.871556">
        <ele>345.482417</ele>
        <time>2021-11-07T16:57:37.907Z</time>
      </trkpt>
      <trkpt lat="47.541953" lon="7.871286">
        <ele>345.482417</ele>
        <time>2021-11-07T16:57:40.061Z</time>
      </trkpt>
      <trkpt lat="47.541953" lon="7.871286">
        <ele>345.482417</ele>
        <time>2021-11-07T16:57:40.063Z</time>
      </trkpt>
    </trkseg>
  </trk>
</gpx>